History Data Tables
Date Time DC Voltage DC Current AC Voltage AC Current Frequency Power Genarated
2018-05-23 18:20:39 132 V 0.00AMP 249V 0.50 AMP 50Hz 0 KW
2018-05-23 17:36:47 204 V 0.00AMP 249V 0.80 AMP 50Hz 0 KW
2018-05-23 17:28:02 75 V 0.00AMP 252V 0.70 AMP 50Hz 0 KW
2018-05-23 17:19:16 243 V 0.00AMP 252V 0.90 AMP 50Hz 0 KW
2018-05-23 17:10:30 226 V 1.10AMP 254V 0.90 AMP 50Hz 248.6 KW
2018-05-23 17:01:44 245 V 1.30AMP 252V 1.20 AMP 50Hz 318.5 KW
2018-05-23 16:52:59 237 V 1.10AMP 253V 1.00 AMP 50Hz 260.7 KW
2018-05-23 16:44:13 272 V 2.40AMP 254V 2.40 AMP 50Hz 652.8 KW
2018-05-23 16:35:27 262 V 2.10AMP 249V 2.10 AMP 50Hz 550.2 KW
2018-05-23 16:26:42 267 V 2.10AMP 249V 2.10 AMP 50Hz 560.7 KW
2018-05-23 16:17:56 267 V 1.90AMP 248V 1.90 AMP 50Hz 507.3 KW
2018-05-23 16:09:10 248 V 4.00AMP 254V 3.70 AMP 50Hz 992 KW
2018-05-23 16:00:24 260 V 6.70AMP 257V 6.40 AMP 50Hz 1742 KW
2018-05-23 15:51:38 263 V 3.00AMP 248V 3.00 AMP 50Hz 789 KW
2018-05-23 15:42:52 255 V 4.00AMP 250V 3.90 AMP 50Hz 1020 KW
2018-05-23 15:34:06 266 V 7.90AMP 256V 7.70 AMP 50Hz 2101.4 KW
2018-05-23 15:25:20 264 V 8.40AMP 257V 8.20 AMP 50Hz 2217.6 KW
2018-05-23 15:16:34 262 V 8.90AMP 257V 8.60 AMP 50Hz 2331.8 KW
2018-05-23 15:07:49 264 V 9.60AMP 261V 9.20 AMP 50Hz 2534.4 KW
2018-05-23 14:59:03 265 V 8.90AMP 258V 8.60 AMP 50Hz 2358.5 KW
2018-05-23 14:50:17 260 V 11.00AMP 263V 10.30 AMP 50Hz 2860 KW
2018-05-23 14:41:31 256 V 4.60AMP 250V 4.50 AMP 50Hz 1177.6 KW
2018-05-23 14:32:45 267 V 10.70AMP 261V 10.20 AMP 50Hz 2856.9 KW
2018-05-23 14:23:59 255 V 11.40AMP 263V 10.50 AMP 50Hz 2907 KW
2018-05-23 14:15:13 254 V 11.60AMP 264V 10.60 AMP 50Hz 2946.4 KW
2018-05-23 14:06:27 254 V 12.40AMP 267V 11.20 AMP 50Hz 3149.6 KW
2018-05-23 13:57:41 247 V 5.10AMP 253V 4.70 AMP 50Hz 1259.7 KW
2018-05-23 13:31:22 302 V 4.80AMP 261V 5.30 AMP 50Hz 1449.6 KW
2018-05-23 13:05:05 307 V 4.00AMP 260V 4.50 AMP 50Hz 1228 KW
2018-05-23 12:56:20 255 V 10.00AMP 268V 9.00 AMP 50Hz 2550 KW
2018-05-23 12:47:34 311 V 2.60AMP 256V 3.00 AMP 50Hz 808.6 KW
2018-05-23 12:30:02 289 V 7.50AMP 263V 7.80 AMP 50Hz 2167.5 KW
2018-05-23 12:21:15 281 V 9.50AMP 268V 9.50 AMP 50Hz 2669.5 KW
2018-05-23 11:54:56 320 V 0.00AMP 248V 1.20 AMP 50Hz 0 KW
2018-05-23 11:46:10 297 V 6.00AMP 260V 6.50 AMP 50Hz 1782 KW
2018-05-23 11:37:24 306 V 4.10AMP 260V 4.60 AMP 50Hz 1254.6 KW
2018-05-23 11:02:21 312 V 4.40AMP 259V 5.00 AMP 50Hz 1372.8 KW
2018-05-23 10:53:35 266 V 8.30AMP 263V 8.00 AMP 50Hz 2207.8 KW
2018-05-23 10:44:49 262 V 7.30AMP 260V 7.00 AMP 50Hz 1912.6 KW
2018-05-23 10:36:02 273 V 6.40AMP 258V 6.40 AMP 50Hz 1747.2 KW
2018-05-23 10:27:17 274 V 5.70AMP 257V 5.80 AMP 50Hz 1561.8 KW
2018-05-23 10:18:31 262 V 8.00AMP 262V 7.60 AMP 50Hz 2096 KW
2018-05-23 10:09:45 263 V 8.60AMP 267V 8.10 AMP 50Hz 2261.8 KW
2018-05-23 10:00:59 268 V 6.30AMP 260V 6.20 AMP 50Hz 1688.4 KW
2018-05-23 09:52:13 264 V 9.10AMP 263V 8.70 AMP 50Hz 2402.4 KW
2018-05-23 09:43:27 268 V 6.30AMP 256V 6.30 AMP 50Hz 1688.4 KW
2018-05-23 09:34:42 271 V 4.50AMP 257V 4.50 AMP 50Hz 1219.5 KW
2018-05-23 09:25:56 269 V 4.90AMP 258V 4.90 AMP 50Hz 1318.1 KW
2018-05-23 09:17:10 265 V 8.80AMP 264V 8.40 AMP 50Hz 2332 KW
2018-05-23 09:08:25 265 V 6.90AMP 261V 6.70 AMP 50Hz 1828.5 KW
2018-05-23 08:59:39 271 V 5.40AMP 254V 5.50 AMP 50Hz 1463.4 KW
2018-05-23 08:50:54 271 V 4.70AMP 254V 4.80 AMP 50Hz 1273.7 KW
2018-05-23 08:42:08 270 V 4.50AMP 252V 4.60 AMP 50Hz 1215 KW
2018-05-23 08:33:22 271 V 4.20AMP 252V 4.30 AMP 50Hz 1138.2 KW
2018-05-23 08:24:37 275 V 4.70AMP 249V 4.90 AMP 50Hz 1292.5 KW
2018-05-23 08:15:48 280 V 3.80AMP 252V 4.00 AMP 50Hz 1064 KW
2018-05-23 08:07:01 265 V 3.80AMP 244V 3.90 AMP 50Hz 1007 KW
2018-05-23 07:58:15 288 V 3.50AMP 251V 3.80 AMP 50Hz 1008 KW
2018-05-23 07:49:29 283 V 2.40AMP 243V 2.70 AMP 50Hz 679.2 KW
2018-05-23 07:40:44 274 V 2.30AMP 239V 2.50 AMP 50Hz 630.2 KW
2018-05-23 07:31:58 278 V 1.70AMP 242V 1.90 AMP 50Hz 472.6 KW
2018-05-23 07:23:12 276 V 1.10AMP 243V 1.20 AMP 50Hz 303.6 KW
2018-05-23 07:14:27 261 V 1.10AMP 246V 1.10 AMP 50Hz 287.1 KW
2018-05-23 07:05:41 256 V 0.70AMP 251V 0.70 AMP 50Hz 179.2 KW
2018-05-23 06:56:55 241 V 0.40AMP 254V 0.40 AMP 50Hz 96.4 KW
2018-05-23 06:48:09 260 V 0.00AMP 245V 0.80 AMP 50Hz 0 KW
2018-05-23 06:39:24 205 V 0.00AMP 242V 0.50 AMP 50Hz 0 KW
2018-05-23 06:30:38 118 V 0.00AMP 243V 0.50 AMP 50Hz 0 KW
2018-05-23 06:21:53 84 V 0.00AMP 241V 0.50 AMP 50Hz 0 KW
2018-05-23 18:15:35 124 V 0.00AMP 252V 0.60 AMP 50Hz 0 KW
2018-05-23 18:06:49 77 V 0.00AMP 249V 1.40 AMP 50Hz 0 KW
2018-05-23 17:58:04 135 V 0.00AMP 246V 1.50 AMP 50Hz 0 KW
2018-05-23 17:49:18 283 V 0.00AMP 247V 1.60 AMP 50Hz 0 KW
2018-05-23 17:40:32 79 V 0.00AMP 247V 1.50 AMP 50Hz 0 KW
2018-05-23 17:31:47 260 V 0.00AMP 250V 1.20 AMP 50Hz 0 KW
2018-05-23 17:23:01 253 V 0.30AMP 250V 0.30 AMP 50Hz 75.9 KW
2018-05-23 17:14:15 261 V 0.40AMP 249V 0.40 AMP 50Hz 104.4 KW
2018-05-23 17:05:29 226 V 0.70AMP 249V 0.60 AMP 50Hz 158.2 KW
2018-05-23 16:56:43 252 V 1.00AMP 254V 0.90 AMP 50Hz 252 KW
2018-05-23 16:47:57 222 V 1.10AMP 255V 0.90 AMP 50Hz 244.2 KW
2018-05-23 16:39:12 230 V 1.10AMP 254V 0.90 AMP 50Hz 253 KW
2018-05-23 16:30:26 247 V 1.20AMP 256V 1.10 AMP 50Hz 296.4 KW
2018-05-23 16:21:40 271 V 1.40AMP 254V 1.40 AMP 50Hz 379.4 KW
2018-05-23 16:12:55 260 V 1.60AMP 253V 1.60 AMP 50Hz 416 KW
2018-05-23 16:04:08 267 V 1.80AMP 257V 1.80 AMP 50Hz 480.6 KW
2018-05-23 15:55:22 271 V 2.40AMP 253V 2.40 AMP 50Hz 650.4 KW
2018-05-23 15:46:37 271 V 2.40AMP 252V 2.50 AMP 50Hz 650.4 KW
2018-05-23 15:37:51 270 V 2.50AMP 252V 2.50 AMP 50Hz 675 KW
2018-05-23 15:29:05 266 V 2.40AMP 251V 2.40 AMP 50Hz 638.4 KW
2018-05-23 15:20:18 267 V 2.50AMP 252V 2.50 AMP 50Hz 667.5 KW
2018-05-23 15:11:32 265 V 3.00AMP 251V 3.00 AMP 50Hz 795 KW
2018-05-23 15:02:46 271 V 3.80AMP 252V 3.90 AMP 50Hz 1029.8 KW
2018-05-23 14:54:01 270 V 4.70AMP 256V 4.70 AMP 50Hz 1269 KW
2018-05-23 14:45:15 270 V 4.90AMP 254V 5.00 AMP 50Hz 1323 KW
2018-05-23 14:36:29 268 V 4.40AMP 255V 4.40 AMP 50Hz 1179.2 KW
2018-05-23 14:27:39 274 V 4.60AMP 257V 4.70 AMP 50Hz 1260.4 KW
2018-05-23 14:18:51 263 V 6.00AMP 261V 5.70 AMP 50Hz 1578 KW
2018-05-23 14:10:05 267 V 7.80AMP 264V 7.50 AMP 50Hz 2082.6 KW
2018-05-23 14:01:20 268 V 7.80AMP 261V 7.60 AMP 50Hz 2090.4 KW
2018-05-23 13:52:34 266 V 6.70AMP 260V 6.50 AMP 50Hz 1782.2 KW
2018-05-23 13:43:48 264 V 7.50AMP 261V 7.20 AMP 50Hz 1980 KW
2018-05-23 13:35:03 262 V 8.00AMP 268V 7.40 AMP 50Hz 2096 KW
2018-05-23 13:17:29 265 V 7.50AMP 266V 7.10 AMP 50Hz 1987.5 KW
2018-05-23 13:08:43 262 V 7.50AMP 263V 7.10 AMP 50Hz 1965 KW
2018-05-23 12:59:55 254 V 8.20AMP 264V 7.50 AMP 50Hz 2082.8 KW
2018-05-23 12:51:09 260 V 11.80AMP 269V 10.80 AMP 50Hz 3068 KW
2018-05-23 12:42:24 290 V 9.00AMP 268V 9.30 AMP 50Hz 2610 KW
2018-05-23 12:33:38 262 V 9.20AMP 264V 8.70 AMP 50Hz 2410.4 KW
2018-05-23 12:24:52 264 V 7.30AMP 261V 7.00 AMP 50Hz 1927.2 KW
2018-05-23 12:16:07 267 V 8.00AMP 261V 7.80 AMP 50Hz 2136 KW
2018-05-23 12:07:21 260 V 8.40AMP 256V 8.10 AMP 50Hz 2184 KW
2018-05-23 11:58:35 269 V 9.60AMP 259V 9.40 AMP 50Hz 2582.4 KW
2018-05-23 11:49:50 270 V 7.60AMP 254V 7.70 AMP 50Hz 2052 KW
2018-05-23 11:41:04 262 V 7.20AMP 254V 7.10 AMP 50Hz 1886.4 KW
2018-05-23 11:32:18 265 V 9.60AMP 261V 9.30 AMP 50Hz 2544 KW
2018-05-23 11:23:33 264 V 11.60AMP 264V 11.00 AMP 50Hz 3062.4 KW
2018-05-23 11:14:47 262 V 9.00AMP 258V 8.70 AMP 50Hz 2358 KW
2018-05-23 10:30:59 269 V 8.00AMP 263V 7.80 AMP 50Hz 2152 KW
2018-05-23 10:22:13 275 V 7.50AMP 262V 7.50 AMP 50Hz 2062.5 KW
2018-05-23 10:13:27 276 V 5.60AMP 259V 5.70 AMP 50Hz 1545.6 KW
2018-05-23 10:04:41 281 V 4.50AMP 259V 4.60 AMP 50Hz 1264.5 KW
2018-05-23 09:55:55 279 V 4.10AMP 253V 4.30 AMP 50Hz 1143.9 KW
2018-05-23 09:47:09 283 V 3.60AMP 259V 3.70 AMP 50Hz 1018.8 KW
2018-05-23 09:38:24 273 V 3.40AMP 256V 3.40 AMP 50Hz 928.2 KW
2018-05-23 09:29:38 274 V 2.80AMP 256V 2.80 AMP 50Hz 767.2 KW
2018-05-23 09:20:52 273 V 2.80AMP 250V 2.90 AMP 50Hz 764.4 KW
2018-05-23 09:12:07 276 V 3.10AMP 247V 3.30 AMP 50Hz 855.6 KW
2018-05-23 09:03:21 274 V 3.60AMP 251V 3.70 AMP 50Hz 986.4 KW
2018-05-23 08:54:35 280 V 2.30AMP 249V 2.50 AMP 50Hz 644 KW
2018-05-23 08:45:50 265 V 1.30AMP 248V 1.30 AMP 50Hz 344.5 KW
2018-05-23 08:37:02 261 V 0.60AMP 249V 0.60 AMP 50Hz 156.6 KW
2018-05-23 08:28:16 260 V 0.40AMP 249V 0.40 AMP 50Hz 104 KW
2018-05-23 08:19:31 241 V 0.20AMP 249V 0.20 AMP 50Hz 48.2 KW
2018-05-23 08:10:45 122 V 0.00AMP 249V 0.60 AMP 50Hz 0 KW
2018-05-23 08:01:59 148 V 0.10AMP 251V 0.10 AMP 50Hz 14.8 KW
2018-05-23 07:53:14 76 V 0.00AMP 251V 0.70 AMP 50Hz 0 KW
2018-05-23 07:44:28 255 V 0.00AMP 245V 0.60 AMP 50Hz 0 KW
2018-05-23 07:35:42 73 V 0.00AMP 253V 0.60 AMP 50Hz 0 KW
2018-05-23 07:26:57 94 V 0.00AMP 253V 0.50 AMP 50Hz 0 KW
2018-05-23 07:18:11 77 V 0.00AMP 254V 0.70 AMP 50Hz 0 KW
2018-05-23 07:09:25 115 V 0.00AMP 251V 0.70 AMP 50Hz 0 KW
2018-05-23 07:00:40 263 V 0.20AMP 256V 0.20 AMP 50Hz 52.6 KW
2018-05-23 06:51:54 246 V 0.40AMP 254V 0.40 AMP 50Hz 98.4 KW
2018-05-23 06:43:08 252 V 0.20AMP 250V 0.20 AMP 50Hz 50.4 KW
2018-05-23 06:34:23 102 V 0.00AMP 250V 0.70 AMP 50Hz 0 KW
2018-05-23 06:25:37 77 V 0.00AMP 249V 0.50 AMP 50Hz 0 KW
2018-05-23 06:16:51 82 V 0.00AMP 253V 0.50 AMP 50Hz 0 KW
2018-05-23 18:02:30 129 V 0.00AMP 259V 1.40 AMP 50Hz 0 KW
2018-05-23 17:44:27 76 V 0.00AMP 253V 0.60 AMP 50Hz 0 KW
2018-05-23 17:35:41 232 V 0.00AMP 253V 0.60 AMP 50Hz 0 KW
2018-05-23 17:26:55 88 V 0.00AMP 252V 0.80 AMP 50Hz 0 KW
2018-05-23 17:18:09 218 V 0.20AMP 253V 0.20 AMP 50Hz 43.6 KW
2018-05-23 17:09:23 222 V 0.40AMP 254V 0.30 AMP 50Hz 88.8 KW
2018-05-23 17:00:37 176 V 0.10AMP 251V 0.10 AMP 50Hz 17.6 KW
2018-05-23 16:51:52 223 V 0.50AMP 249V 0.40 AMP 50Hz 111.5 KW
2018-05-23 16:43:06 214 V 1.00AMP 248V 0.80 AMP 50Hz 214 KW
2018-05-23 16:34:20 256 V 1.90AMP 251V 1.80 AMP 50Hz 486.4 KW
2018-05-23 16:25:34 266 V 3.60AMP 257V 3.50 AMP 50Hz 957.6 KW
2018-05-23 16:16:48 256 V 2.20AMP 252V 2.10 AMP 50Hz 563.2 KW
2018-05-23 16:08:02 265 V 4.30AMP 253V 4.30 AMP 50Hz 1139.5 KW
2018-05-23 15:59:17 262 V 6.90AMP 258V 6.70 AMP 50Hz 1807.8 KW
2018-05-23 15:50:31 246 V 5.50AMP 260V 4.90 AMP 50Hz 1353 KW
2018-05-23 15:41:45 264 V 4.50AMP 254V 4.40 AMP 50Hz 1188 KW
2018-05-23 15:33:00 253 V 8.90AMP 261V 8.20 AMP 50Hz 2251.7 KW
2018-05-23 15:24:14 263 V 8.90AMP 261V 8.50 AMP 50Hz 2340.7 KW
2018-05-23 15:15:28 261 V 8.60AMP 266V 8.00 AMP 50Hz 2244.6 KW
2018-05-23 15:06:43 258 V 7.30AMP 262V 6.80 AMP 50Hz 1883.4 KW
2018-05-23 14:57:57 260 V 10.10AMP 269V 9.30 AMP 50Hz 2626 KW
2018-05-23 14:49:11 260 V 9.60AMP 263V 9.00 AMP 50Hz 2496 KW
2018-05-23 14:40:24 239 V 8.30AMP 261V 7.20 AMP 50Hz 1983.7 KW
2018-05-23 14:31:37 252 V 9.20AMP 263V 8.40 AMP 50Hz 2318.4 KW
2018-05-23 14:22:52 259 V 6.10AMP 258V 5.80 AMP 50Hz 1579.9 KW
2018-05-23 14:05:20 262 V 6.20AMP 262V 5.90 AMP 50Hz 1624.4 KW
2018-05-23 13:56:34 264 V 6.50AMP 262V 6.20 AMP 50Hz 1716 KW
2018-05-23 13:30:17 249 V 9.60AMP 266V 8.50 AMP 50Hz 2390.4 KW
2018-05-23 12:28:58 304 V 4.40AMP 258V 4.90 AMP 50Hz 1337.6 KW
2018-05-23 12:20:12 294 V 8.70AMP 267V 9.10 AMP 50Hz 2557.8 KW
2018-05-23 12:11:26 318 V 0.00AMP 254V 1.40 AMP 50Hz 0 KW
2018-05-23 12:02:41 306 V 3.50AMP 261V 3.90 AMP 50Hz 1071 KW
2018-05-23 10:35:04 263 V 11.80AMP 268V 11.00 AMP 50Hz 3103.4 KW
2018-05-23 10:26:18 258 V 9.10AMP 262V 8.50 AMP 50Hz 2347.8 KW
2018-05-23 10:08:46 261 V 10.30AMP 264V 9.70 AMP 50Hz 2688.3 KW
2018-05-23 10:00:01 259 V 6.50AMP 260V 6.20 AMP 50Hz 1683.5 KW
2018-05-23 09:51:15 266 V 9.30AMP 264V 8.90 AMP 50Hz 2473.8 KW
2018-05-23 09:42:29 264 V 8.50AMP 262V 8.10 AMP 50Hz 2244 KW
2018-05-23 09:33:43 272 V 7.70AMP 261V 7.60 AMP 50Hz 2094.4 KW
2018-05-23 09:24:58 274 V 7.20AMP 261V 7.20 AMP 50Hz 1972.8 KW
2018-05-23 09:16:12 274 V 6.70AMP 261V 6.70 AMP 50Hz 1835.8 KW
2018-05-23 09:07:26 271 V 6.30AMP 261V 6.20 AMP 50Hz 1707.3 KW
2018-05-23 08:58:41 273 V 5.70AMP 261V 5.70 AMP 50Hz 1556.1 KW
2018-05-23 08:49:55 270 V 5.20AMP 256V 5.20 AMP 50Hz 1404 KW
2018-05-23 08:41:09 275 V 4.70AMP 254V 4.80 AMP 50Hz 1292.5 KW
2018-05-23 08:32:24 275 V 4.20AMP 258V 4.30 AMP 50Hz 1155 KW
2018-05-23 08:23:38 273 V 3.80AMP 251V 3.90 AMP 50Hz 1037.4 KW
2018-05-23 08:14:52 275 V 3.10AMP 251V 3.20 AMP 50Hz 852.5 KW
2018-05-23 08:06:07 273 V 2.70AMP 252V 2.80 AMP 50Hz 737.1 KW
2018-05-23 07:57:21 278 V 2.20AMP 249V 2.30 AMP 50Hz 611.6 KW
2018-05-23 07:48:35 270 V 1.80AMP 252V 1.80 AMP 50Hz 486 KW
2018-05-23 07:39:50 267 V 1.70AMP 249V 1.70 AMP 50Hz 453.9 KW
2018-05-23 07:31:02 254 V 1.70AMP 248V 1.70 AMP 50Hz 431.8 KW
2018-05-23 07:22:16 269 V 1.80AMP 253V 1.80 AMP 50Hz 484.2 KW
2018-05-23 07:13:31 271 V 1.30AMP 253V 1.30 AMP 50Hz 352.3 KW
2018-05-23 07:04:45 252 V 0.80AMP 250V 0.80 AMP 50Hz 201.6 KW
2018-05-23 06:55:59 220 V 0.40AMP 247V 0.30 AMP 50Hz 88 KW
2018-05-23 06:47:14 218 V 0.30AMP 249V 0.20 AMP 50Hz 65.4 KW
2018-05-23 06:38:28 244 V 0.10AMP 251V 0.10 AMP 50Hz 24.4 KW
2018-05-23 06:29:40 229 V 0.00AMP 246V 0.60 AMP 50Hz 0 KW
2018-05-23 06:20:55 147 V 0.00AMP 245V 0.80 AMP 50Hz 0 KW
2018-05-23 06:12:07 138 V 0.00AMP 245V 0.80 AMP 50Hz 0 KW
2018-05-23 18:32:38 101 V 0.00AMP 249V 0.60 AMP 50Hz 0 KW
2018-05-23 18:23:52 282 V 0.00AMP 245V 0.70 AMP 50Hz 0 KW
2018-05-23 18:15:07 172 V 0.10AMP 245V 0.10 AMP 50Hz 17.2 KW
2018-05-23 18:06:21 154 V 0.20AMP 248V 0.10 AMP 50Hz 30.8 KW
2018-05-23 17:57:35 182 V 0.40AMP 244V 0.30 AMP 50Hz 72.8 KW
2018-05-23 17:48:50 225 V 0.70AMP 245V 0.60 AMP 50Hz 157.5 KW
2018-05-23 17:39:45 251 V 0.70AMP 244V 0.70 AMP 50Hz 175.7 KW
2018-05-23 17:31:00 261 V 0.70AMP 244V 0.70 AMP 50Hz 182.7 KW
2018-05-23 17:22:14 227 V 0.50AMP 244V 0.40 AMP 50Hz 113.5 KW
2018-05-23 17:04:09 251 V 0.70AMP 246V 0.70 AMP 50Hz 175.7 KW
2018-05-23 16:55:23 271 V 1.10AMP 245V 1.20 AMP 50Hz 298.1 KW
2018-05-23 16:46:37 274 V 1.70AMP 244V 1.80 AMP 50Hz 465.8 KW
2018-05-23 16:37:50 261 V 2.90AMP 248V 2.90 AMP 50Hz 756.9 KW
2018-05-23 16:29:04 271 V 5.30AMP 257V 5.30 AMP 50Hz 1436.3 KW
2018-05-23 16:20:15 269 V 4.50AMP 250V 4.60 AMP 50Hz 1210.5 KW
2018-05-23 16:11:29 273 V 5.10AMP 252V 5.30 AMP 50Hz 1392.3 KW
2018-05-23 16:02:43 271 V 4.70AMP 250V 4.80 AMP 50Hz 1273.7 KW
2018-05-23 15:53:57 264 V 4.30AMP 252V 4.30 AMP 50Hz 1135.2 KW
2018-05-23 15:45:12 267 V 5.40AMP 252V 5.40 AMP 50Hz 1441.8 KW
2018-05-23 15:36:26 267 V 6.40AMP 252V 6.50 AMP 50Hz 1708.8 KW
2018-05-23 15:27:40 265 V 5.30AMP 251V 5.30 AMP 50Hz 1404.5 KW
2018-05-23 15:18:54 257 V 7.30AMP 254V 7.00 AMP 50Hz 1876.1 KW
2018-05-23 15:10:08 263 V 11.60AMP 263V 11.00 AMP 50Hz 3050.8 KW
2018-05-23 15:01:22 256 V 8.60AMP 257V 8.10 AMP 50Hz 2201.6 KW
2018-05-23 14:52:37 266 V 7.20AMP 255V 7.10 AMP 50Hz 1915.2 KW
2018-05-23 14:43:51 235 V 11.60AMP 260V 9.90 AMP 50Hz 2726 KW
2018-05-23 14:35:05 289 V 9.00AMP 262V 9.40 AMP 50Hz 2601 KW
2018-05-23 14:17:01 242 V 11.20AMP 263V 9.80 AMP 50Hz 2710.4 KW
2018-05-23 14:08:16 267 V 13.00AMP 267V 12.40 AMP 50Hz 3471 KW
2018-05-23 13:59:28 250 V 6.60AMP 256V 6.10 AMP 50Hz 1650 KW
2018-05-23 13:50:42 322 V 0.00AMP 245V 1.20 AMP 50Hz 0 KW
2018-05-23 13:33:10 262 V 8.60AMP 261V 8.10 AMP 50Hz 2253.2 KW
2018-05-23 09:50:07 263 V 6.60AMP 258V 6.40 AMP 50Hz 1735.8 KW
2018-05-23 07:29:47 224 V 0.80AMP 244V 0.70 AMP 50Hz 179.2 KW
2018-05-23 18:23:25 113 V 0.00AMP 242V 0.60 AMP 50Hz 0 KW
2018-05-23 18:14:40 267 V 0.00AMP 244V 0.70 AMP 50Hz 0 KW
2018-05-23 18:05:54 237 V 0.00AMP 252V 0.70 AMP 50Hz 0 KW
2018-05-23 17:57:08 81 V 0.00AMP 253V 0.60 AMP 50Hz 0 KW
2018-05-23 17:39:37 252 V 0.30AMP 250V 0.30 AMP 50Hz 75.6 KW
2018-05-23 17:30:51 230 V 0.80AMP 254V 0.70 AMP 50Hz 184 KW
2018-05-23 17:22:05 245 V 0.90AMP 253V 0.80 AMP 50Hz 220.5 KW
2018-05-23 17:13:20 243 V 1.00AMP 253V 0.90 AMP 50Hz 243 KW
2018-05-23 17:04:34 239 V 0.80AMP 251V 0.70 AMP 50Hz 191.2 KW
2018-05-23 16:55:48 271 V 3.10AMP 251V 3.20 AMP 50Hz 840.1 KW
2018-05-23 16:47:02 272 V 3.60AMP 250V 3.70 AMP 50Hz 979.2 KW
2018-05-23 16:38:17 270 V 4.10AMP 255V 4.10 AMP 50Hz 1107 KW
2018-05-23 16:29:31 269 V 3.70AMP 254V 3.70 AMP 50Hz 995.3 KW
2018-05-23 16:20:45 262 V 2.80AMP 253V 2.80 AMP 50Hz 733.6 KW
2018-05-23 16:11:59 261 V 5.60AMP 258V 5.40 AMP 50Hz 1461.6 KW
2018-05-23 16:03:13 264 V 6.00AMP 257V 5.90 AMP 50Hz 1584 KW
2018-05-23 15:54:28 262 V 3.90AMP 255V 3.80 AMP 50Hz 1021.8 KW
2018-05-23 15:45:42 264 V 6.00AMP 258V 5.80 AMP 50Hz 1584 KW
2018-05-23 15:36:56 269 V 6.10AMP 254V 6.10 AMP 50Hz 1640.9 KW
2018-05-23 15:28:11 267 V 5.10AMP 255V 5.10 AMP 50Hz 1361.7 KW
2018-05-23 15:19:25 259 V 6.40AMP 258V 6.10 AMP 50Hz 1657.6 KW
2018-05-23 15:10:39 268 V 6.30AMP 256V 6.30 AMP 50Hz 1688.4 KW
2018-05-23 15:01:54 268 V 5.50AMP 256V 5.50 AMP 50Hz 1474 KW
2018-05-23 14:53:08 271 V 5.40AMP 255V 5.50 AMP 50Hz 1463.4 KW
2018-05-23 14:44:22 273 V 4.80AMP 254V 4.90 AMP 50Hz 1310.4 KW
2018-05-23 14:35:37 269 V 5.10AMP 255V 5.10 AMP 50Hz 1371.9 KW
2018-05-23 14:26:51 277 V 4.20AMP 254V 4.40 AMP 50Hz 1163.4 KW
2018-05-23 14:18:05 273 V 4.80AMP 254V 4.90 AMP 50Hz 1310.4 KW
2018-05-23 14:09:20 272 V 3.60AMP 252V 3.70 AMP 50Hz 979.2 KW
2018-05-23 14:00:34 275 V 3.50AMP 252V 3.60 AMP 50Hz 962.5 KW
2018-05-23 13:51:48 272 V 3.70AMP 253V 3.80 AMP 50Hz 1006.4 KW
2018-05-23 13:43:02 279 V 3.30AMP 250V 3.50 AMP 50Hz 920.7 KW
2018-05-23 13:34:17 269 V 2.70AMP 250V 2.80 AMP 50Hz 726.3 KW
2018-05-23 13:25:31 266 V 2.30AMP 253V 2.30 AMP 50Hz 611.8 KW
2018-05-23 13:16:46 269 V 1.50AMP 251V 1.50 AMP 50Hz 403.5 KW
2018-05-23 13:08:00 275 V 1.20AMP 250V 1.30 AMP 50Hz 330 KW
2018-05-23 12:59:14 254 V 1.10AMP 255V 1.00 AMP 50Hz 279.4 KW
2018-05-23 12:50:29 264 V 1.00AMP 252V 1.00 AMP 50Hz 264 KW
2018-05-23 12:41:43 257 V 1.00AMP 251V 1.00 AMP 50Hz 257 KW
2018-05-23 12:32:57 249 V 0.80AMP 251V 0.80 AMP 50Hz 199.2 KW
2018-05-23 12:24:12 249 V 0.70AMP 253V 0.70 AMP 50Hz 174.3 KW
2018-05-23 12:15:26 246 V 0.60AMP 251V 0.60 AMP 50Hz 147.6 KW
2018-05-23 12:06:40 258 V 1.00AMP 248V 1.00 AMP 50Hz 258 KW
2018-05-23 11:57:55 216 V 1.10AMP 247V 0.90 AMP 50Hz 237.6 KW
2018-05-23 11:49:09 252 V 1.00AMP 247V 1.00 AMP 50Hz 252 KW
2018-05-23 11:40:23 237 V 1.00AMP 248V 0.90 AMP 50Hz 237 KW
2018-05-23 11:31:37 258 V 1.40AMP 250V 1.40 AMP 50Hz 361.2 KW
2018-05-23 11:22:51 273 V 2.00AMP 251V 2.10 AMP 50Hz 546 KW
2018-05-23 11:14:06 268 V 2.70AMP 255V 2.70 AMP 50Hz 723.6 KW
2018-05-23 11:05:20 274 V 3.30AMP 253V 3.40 AMP 50Hz 904.2 KW
2018-05-23 10:56:34 276 V 3.20AMP 252V 3.30 AMP 50Hz 883.2 KW
2018-05-23 10:47:49 274 V 3.20AMP 252V 3.30 AMP 50Hz 876.8 KW
2018-05-23 10:39:03 275 V 2.80AMP 250V 2.90 AMP 50Hz 770 KW
2018-05-23 10:30:17 272 V 2.80AMP 253V 2.90 AMP 50Hz 761.6 KW
2018-05-23 10:21:31 278 V 2.60AMP 254V 2.70 AMP 50Hz 722.8 KW
2018-05-23 10:12:46 267 V 3.00AMP 253V 3.00 AMP 50Hz 801 KW
2018-05-23 10:04:00 273 V 2.80AMP 253V 2.90 AMP 50Hz 764.4 KW
2018-05-23 09:55:14 269 V 2.50AMP 254V 2.50 AMP 50Hz 672.5 KW
2018-05-23 09:46:29 270 V 2.40AMP 245V 2.50 AMP 50Hz 648 KW
2018-05-23 09:37:43 269 V 2.00AMP 242V 2.10 AMP 50Hz 538 KW
2018-05-23 09:28:57 272 V 2.10AMP 240V 2.30 AMP 50Hz 571.2 KW
2018-05-23 09:20:12 253 V 2.20AMP 243V 2.20 AMP 50Hz 556.6 KW
2018-05-23 09:11:23 271 V 2.40AMP 240V 2.60 AMP 50Hz 650.4 KW
2018-05-23 09:02:36 265 V 1.80AMP 247V 1.80 AMP 50Hz 477 KW
2018-05-23 08:53:51 252 V 1.40AMP 241V 1.40 AMP 50Hz 352.8 KW
2018-05-23 08:45:05 269 V 2.00AMP 246V 2.10 AMP 50Hz 538 KW
2018-05-23 08:36:19 265 V 2.00AMP 245V 2.10 AMP 50Hz 530 KW
2018-05-23 08:27:34 277 V 1.60AMP 251V 1.70 AMP 50Hz 443.2 KW
2018-05-23 08:18:48 270 V 1.40AMP 250V 1.40 AMP 50Hz 378 KW
2018-05-23 08:10:02 277 V 1.00AMP 248V 1.10 AMP 50Hz 277 KW
2018-05-23 08:01:17 248 V 0.90AMP 253V 0.80 AMP 50Hz 223.2 KW
2018-05-23 07:52:29 237 V 0.70AMP 240V 0.70 AMP 50Hz 165.9 KW
2018-05-23 07:43:44 226 V 0.40AMP 240V 0.40 AMP 50Hz 90.4 KW
2018-05-23 07:26:12 114 V 0.00AMP 246V 0.60 AMP 50Hz 0 KW
2018-05-23 07:17:27 123 V 0.00AMP 244V 0.70 AMP 50Hz 0 KW
2018-05-23 07:08:41 292 V 0.00AMP 247V 0.80 AMP 50Hz 0 KW
2018-05-23 06:51:10 138 V 0.00AMP 248V 0.50 AMP 50Hz 0 KW
2018-05-23 06:42:25 238 V 0.00AMP 250V 0.70 AMP 50Hz 0 KW
2018-05-23 06:33:39 225 V 0.00AMP 244V 0.50 AMP 50Hz 0 KW
2018-05-23 06:24:53 78 V 0.00AMP 244V 0.50 AMP 50Hz 0 KW
2018-05-23 06:16:08 111 V 0.00AMP 241V 0.50 AMP 50Hz 0 KW
2018-05-23 18:37:02 107 V 0.00AMP 244V 0.50 AMP 50Hz 0 KW
2018-05-23 18:28:16 198 V 0.00AMP 249V 0.60 AMP 50Hz 0 KW
2018-05-23 18:19:28 95 V 0.00AMP 245V 0.70 AMP 50Hz 0 KW
2018-05-23 18:10:43 263 V 0.00AMP 248V 0.70 AMP 50Hz 0 KW
2018-05-23 18:01:57 126 V 0.00AMP 245V 0.60 AMP 50Hz 0 KW
2018-05-23 17:53:11 250 V 0.30AMP 244V 0.30 AMP 50Hz 75 KW
2018-05-23 17:44:25 197 V 0.30AMP 245V 0.20 AMP 50Hz 59.1 KW
2018-05-23 17:35:40 225 V 0.50AMP 251V 0.40 AMP 50Hz 112.5 KW
2018-05-23 17:26:54 229 V 0.40AMP 249V 0.30 AMP 50Hz 91.6 KW
2018-05-23 17:18:08 225 V 0.60AMP 254V 0.50 AMP 50Hz 135 KW
2018-05-23 17:09:22 255 V 0.40AMP 251V 0.40 AMP 50Hz 102 KW
2018-05-23 17:00:36 241 V 0.50AMP 252V 0.50 AMP 50Hz 120.5 KW
2018-05-23 16:51:51 221 V 0.90AMP 246V 0.80 AMP 50Hz 198.9 KW
2018-05-23 16:43:04 212 V 0.70AMP 247V 0.60 AMP 50Hz 148.4 KW
2018-05-23 16:34:17 218 V 1.00AMP 246V 0.80 AMP 50Hz 218 KW
2018-05-23 16:25:31 271 V 1.50AMP 253V 1.50 AMP 50Hz 406.5 KW
2018-05-23 16:16:45 264 V 3.10AMP 250V 3.10 AMP 50Hz 818.4 KW
2018-05-23 16:07:59 256 V 4.20AMP 256V 4.00 AMP 50Hz 1075.2 KW
2018-05-23 15:59:13 265 V 6.80AMP 258V 6.60 AMP 50Hz 1802 KW
2018-05-23 15:50:27 261 V 1.90AMP 249V 1.90 AMP 50Hz 495.9 KW
2018-05-23 15:41:42 264 V 7.00AMP 258V 6.80 AMP 50Hz 1848 KW
2018-05-23 15:32:56 254 V 8.30AMP 260V 7.70 AMP 50Hz 2108.2 KW
2018-05-23 15:24:10 256 V 8.90AMP 257V 8.40 AMP 50Hz 2278.4 KW
2018-05-23 15:15:25 268 V 4.70AMP 249V 4.80 AMP 50Hz 1259.6 KW
2018-05-23 15:06:39 254 V 6.00AMP 252V 5.80 AMP 50Hz 1524 KW
2018-05-23 14:57:53 264 V 5.90AMP 248V 6.00 AMP 50Hz 1557.6 KW
2018-05-23 14:49:08 256 V 5.70AMP 250V 5.50 AMP 50Hz 1459.2 KW
2018-05-23 14:40:21 254 V 7.90AMP 255V 7.50 AMP 50Hz 2006.6 KW
2018-05-23 14:31:35 265 V 11.20AMP 266V 10.60 AMP 50Hz 2968 KW
2018-05-23 14:22:50 254 V 6.50AMP 255V 6.20 AMP 50Hz 1651 KW
2018-05-23 14:14:04 247 V 6.40AMP 253V 5.90 AMP 50Hz 1580.8 KW
2018-05-23 14:05:18 248 V 6.50AMP 257V 6.00 AMP 50Hz 1612 KW
2018-05-23 13:56:33 263 V 8.30AMP 261V 8.00 AMP 50Hz 2182.9 KW
2018-05-23 13:47:47 257 V 6.40AMP 251V 6.20 AMP 50Hz 1644.8 KW
2018-05-23 13:39:01 258 V 6.70AMP 253V 6.50 AMP 50Hz 1728.6 KW
2018-05-23 13:30:16 282 V 8.10AMP 258V 8.40 AMP 50Hz 2284.2 KW
2018-05-23 13:21:29 261 V 8.80AMP 258V 8.50 AMP 50Hz 2296.8 KW
2018-05-23 13:12:43 263 V 7.30AMP 255V 7.20 AMP 50Hz 1919.9 KW
2018-05-23 13:03:58 259 V 9.20AMP 257V 8.60 AMP 50Hz 2382.8 KW
2018-05-23 12:55:12 257 V 11.30AMP 257V 10.40 AMP 50Hz 2904.1 KW
2018-05-23 12:46:25 255 V 11.20AMP 256V 10.30 AMP 50Hz 2856 KW
2018-05-23 12:37:40 256 V 13.10AMP 264V 12.00 AMP 50Hz 3353.6 KW
2018-05-23 12:28:54 250 V 14.10AMP 263V 12.50 AMP 50Hz 3525 KW
2018-05-23 12:20:08 259 V 10.00AMP 256V 9.50 AMP 50Hz 2590 KW
2018-05-23 12:11:23 261 V 9.90AMP 259V 9.50 AMP 50Hz 2583.9 KW
2018-05-23 12:02:37 264 V 11.30AMP 263V 10.50 AMP 50Hz 2983.2 KW
2018-05-23 11:53:51 265 V 8.00AMP 253V 7.80 AMP 50Hz 2120 KW
2018-05-23 11:45:06 259 V 7.10AMP 253V 6.90 AMP 50Hz 1838.9 KW
2018-05-23 11:36:20 267 V 6.40AMP 252V 6.40 AMP 50Hz 1708.8 KW
2018-05-23 11:27:34 261 V 7.00AMP 253V 6.80 AMP 50Hz 1827 KW
2018-05-23 11:18:49 267 V 11.10AMP 262V 10.60 AMP 50Hz 2963.7 KW
2018-05-23 11:10:03 266 V 10.90AMP 262V 10.50 AMP 50Hz 2899.4 KW
2018-05-23 11:01:17 265 V 9.40AMP 259V 9.00 AMP 50Hz 2491 KW
2018-05-23 10:52:32 266 V 5.80AMP 251V 5.80 AMP 50Hz 1542.8 KW
2018-05-23 10:43:46 275 V 5.00AMP 250V 5.20 AMP 50Hz 1375 KW
2018-05-23 10:35:01 274 V 4.90AMP 250V 5.10 AMP 50Hz 1342.6 KW
2018-05-23 10:26:15 0 V 0.00AMP 242V 5.50 AMP 50Hz 0 KW
2018-05-23 10:17:30 276 V 5.10AMP 249V 5.40 AMP 50Hz 1407.6 KW
2018-05-23 10:08:44 270 V 5.90AMP 250V 6.10 AMP 50Hz 1593 KW
2018-05-23 09:59:59 269 V 6.20AMP 253V 6.30 AMP 50Hz 1667.8 KW
2018-05-23 09:51:13 272 V 5.70AMP 246V 6.00 AMP 50Hz 1550.4 KW
2018-05-23 09:42:27 276 V 5.30AMP 242V 5.70 AMP 50Hz 1462.8 KW
2018-05-23 09:33:42 272 V 5.70AMP 244V 6.00 AMP 50Hz 1550.4 KW
2018-05-23 09:16:10 275 V 4.40AMP 255V 4.50 AMP 50Hz 1210 KW
2018-05-23 09:07:25 277 V 3.60AMP 255V 3.70 AMP 50Hz 997.2 KW
2018-05-23 08:58:39 268 V 3.30AMP 248V 3.40 AMP 50Hz 884.4 KW
2018-05-23 08:49:53 278 V 3.50AMP 250V 3.70 AMP 50Hz 973 KW
2018-05-23 08:41:08 282 V 2.80AMP 250V 3.00 AMP 50Hz 789.6 KW
2018-05-23 08:32:22 275 V 2.50AMP 249V 2.60 AMP 50Hz 687.5 KW
2018-05-23 07:31:00 284 V 1.10AMP 253V 1.20 AMP 50Hz 312.4 KW
2018-05-23 07:22:14 229 V 1.00AMP 252V 0.90 AMP 50Hz 229 KW
2018-05-23 07:13:27 281 V 0.80AMP 251V 0.90 AMP 50Hz 224.8 KW
2018-05-23 07:04:41 264 V 0.60AMP 257V 0.60 AMP 50Hz 158.4 KW
2018-05-23 06:55:56 251 V 0.40AMP 259V 0.40 AMP 50Hz 100.4 KW
2018-05-23 06:47:10 154 V 0.10AMP 252V 0.10 AMP 50Hz 15.4 KW
2018-05-23 06:38:24 266 V 0.00AMP 250V 0.70 AMP 50Hz 0 KW
2018-05-23 06:29:39 246 V 0.00AMP 249V 0.40 AMP 50Hz 0 KW
2018-05-23 06:20:51 93 V 0.00AMP 249V 0.50 AMP 50Hz 0 KW
2018-05-23 18:32:40 106 V 0.00AMP 246V 0.50 AMP 50Hz 0 KW
2018-05-23 18:23:54 143 V 0.00AMP 252V 0.70 AMP 50Hz 0 KW
2018-05-23 18:15:08 109 V 0.00AMP 248V 0.70 AMP 50Hz 0 KW
2018-05-23 18:06:23 189 V 0.30AMP 248V 0.20 AMP 50Hz 56.7 KW
2018-05-23 17:57:34 203 V 0.70AMP 251V 0.50 AMP 50Hz 142.1 KW
2018-05-23 17:48:30 227 V 0.80AMP 252V 0.70 AMP 50Hz 181.6 KW
2018-05-23 17:39:45 211 V 1.10AMP 250V 0.90 AMP 50Hz 232.1 KW
2018-05-23 17:30:59 224 V 1.10AMP 250V 0.90 AMP 50Hz 246.4 KW
2018-05-23 17:22:13 269 V 1.10AMP 252V 1.10 AMP 50Hz 295.9 KW
2018-05-23 17:13:27 267 V 1.00AMP 254V 1.00 AMP 50Hz 267 KW
2018-05-23 17:04:41 262 V 1.90AMP 255V 1.90 AMP 50Hz 497.8 KW
2018-05-23 16:55:55 259 V 2.20AMP 252V 2.10 AMP 50Hz 569.8 KW
2018-05-23 16:47:10 259 V 2.40AMP 255V 2.30 AMP 50Hz 621.6 KW
2018-05-23 16:38:24 263 V 2.90AMP 256V 2.80 AMP 50Hz 762.7 KW
2018-05-23 16:29:38 265 V 3.40AMP 256V 3.30 AMP 50Hz 901 KW
2018-05-23 16:20:52 267 V 3.60AMP 258V 3.50 AMP 50Hz 961.2 KW
2018-05-23 16:12:06 269 V 3.70AMP 258V 3.70 AMP 50Hz 995.3 KW
2018-05-23 16:03:21 266 V 3.80AMP 254V 3.80 AMP 50Hz 1010.8 KW
2018-05-23 15:54:35 269 V 4.30AMP 249V 4.40 AMP 50Hz 1156.7 KW
2018-05-23 15:45:49 269 V 4.50AMP 248V 4.60 AMP 50Hz 1210.5 KW
2018-05-23 15:37:03 257 V 5.40AMP 248V 5.30 AMP 50Hz 1387.8 KW
2018-05-23 15:28:18 252 V 6.40AMP 247V 6.20 AMP 50Hz 1612.8 KW
2018-05-23 15:19:32 253 V 8.60AMP 254V 8.10 AMP 50Hz 2175.8 KW
2018-05-23 15:10:46 256 V 10.50AMP 261V 9.70 AMP 50Hz 2688 KW
2018-05-23 15:02:01 258 V 10.80AMP 263V 10.00 AMP 50Hz 2786.4 KW
2018-05-23 14:53:15 258 V 11.10AMP 263V 10.40 AMP 50Hz 2863.8 KW
2018-05-23 14:44:29 248 V 11.60AMP 264V 10.40 AMP 50Hz 2876.8 KW
2018-05-23 14:35:44 253 V 11.60AMP 266V 10.50 AMP 50Hz 2934.8 KW
2018-05-23 14:26:58 259 V 10.90AMP 266V 10.10 AMP 50Hz 2823.1 KW
2018-05-23 14:18:12 252 V 10.40AMP 263V 9.50 AMP 50Hz 2620.8 KW
2018-05-23 14:09:27 260 V 10.30AMP 267V 9.50 AMP 50Hz 2678 KW
2018-05-23 14:00:41 263 V 8.30AMP 263V 7.90 AMP 50Hz 2182.9 KW
2018-05-23 13:51:55 268 V 7.30AMP 263V 7.10 AMP 50Hz 1956.4 KW
2018-05-23 13:43:09 253 V 6.80AMP 257V 6.40 AMP 50Hz 1720.4 KW
2018-05-23 13:34:23 253 V 8.30AMP 261V 7.70 AMP 50Hz 2099.9 KW
2018-05-23 13:25:38 251 V 8.80AMP 261V 8.00 AMP 50Hz 2208.8 KW
2018-05-23 13:16:52 249 V 9.80AMP 264V 8.80 AMP 50Hz 2440.2 KW
2018-05-23 13:08:06 259 V 10.10AMP 264V 9.40 AMP 50Hz 2615.9 KW
2018-05-23 12:59:20 263 V 8.90AMP 262V 8.50 AMP 50Hz 2340.7 KW
2018-05-23 12:50:35 245 V 9.10AMP 262V 8.10 AMP 50Hz 2229.5 KW
2018-05-23 12:24:18 316 V 0.50AMP 250V 0.60 AMP 50Hz 158 KW
2018-05-23 12:15:32 301 V 4.00AMP 256V 4.50 AMP 50Hz 1204 KW
2018-05-23 11:58:01 244 V 12.70AMP 267V 11.00 AMP 50Hz 3098.8 KW
2018-05-23 11:49:15 251 V 12.50AMP 268V 11.10 AMP 50Hz 3137.5 KW
2018-05-23 11:40:29 316 V 0.00AMP 247V 2.10 AMP 50Hz 0 KW
2018-05-23 11:22:58 317 V 0.00AMP 247V 1.20 AMP 50Hz 0 KW
2018-05-23 11:14:12 242 V 12.70AMP 268V 10.90 AMP 50Hz 3073.4 KW
2018-05-23 11:05:27 292 V 7.60AMP 262V 8.10 AMP 50Hz 2219.2 KW
2018-05-23 10:56:41 259 V 11.40AMP 265V 10.50 AMP 50Hz 2952.6 KW
2018-05-23 10:47:55 258 V 11.20AMP 266V 10.30 AMP 50Hz 2889.6 KW
2018-05-23 10:39:09 254 V 10.90AMP 264V 10.00 AMP 50Hz 2768.6 KW
2018-05-23 10:30:24 257 V 10.60AMP 263V 9.80 AMP 50Hz 2724.2 KW
2018-05-23 10:21:36 258 V 10.30AMP 263V 9.60 AMP 50Hz 2657.4 KW
2018-05-23 10:12:51 261 V 9.90AMP 262V 9.40 AMP 50Hz 2583.9 KW
2018-05-23 10:04:05 256 V 9.60AMP 262V 8.90 AMP 50Hz 2457.6 KW
2018-05-23 09:46:34 261 V 8.80AMP 261V 8.40 AMP 50Hz 2296.8 KW
2018-05-23 09:37:48 265 V 8.00AMP 258V 7.80 AMP 50Hz 2120 KW
2018-05-23 09:29:02 268 V 7.80AMP 258V 7.70 AMP 50Hz 2090.4 KW
2018-05-23 09:20:17 260 V 7.00AMP 261V 6.60 AMP 50Hz 1820 KW
2018-05-23 09:11:31 267 V 6.60AMP 260V 6.40 AMP 50Hz 1762.2 KW
2018-05-23 09:02:45 270 V 6.10AMP 250V 6.30 AMP 50Hz 1647 KW
2018-05-23 08:54:00 271 V 5.70AMP 247V 5.90 AMP 50Hz 1544.7 KW
2018-05-23 08:45:14 265 V 5.20AMP 249V 5.30 AMP 50Hz 1378 KW
2018-05-23 08:36:28 271 V 4.60AMP 252V 4.70 AMP 50Hz 1246.6 KW
2018-05-23 08:27:43 276 V 4.10AMP 251V 4.30 AMP 50Hz 1131.6 KW
2018-05-23 08:18:57 284 V 3.60AMP 252V 3.90 AMP 50Hz 1022.4 KW
2018-05-23 08:10:12 273 V 3.10AMP 252V 3.20 AMP 50Hz 846.3 KW
2018-05-23 08:01:26 274 V 2.50AMP 251V 2.60 AMP 50Hz 685 KW
2018-05-23 07:52:41 275 V 2.00AMP 252V 2.10 AMP 50Hz 550 KW
2018-05-23 07:43:55 273 V 1.50AMP 246V 1.60 AMP 50Hz 409.5 KW
2018-05-23 07:35:10 272 V 1.10AMP 248V 1.10 AMP 50Hz 299.2 KW
2018-05-23 07:26:24 241 V 0.80AMP 242V 0.80 AMP 50Hz 192.8 KW
2018-05-23 07:17:38 272 V 1.10AMP 243V 1.20 AMP 50Hz 299.2 KW
2018-05-23 07:08:53 261 V 0.70AMP 244V 0.70 AMP 50Hz 182.7 KW
2018-05-23 07:00:07 127 V 0.20AMP 251V 0.10 AMP 50Hz 25.4 KW
2018-05-23 06:51:21 124 V 0.00AMP 246V 0.50 AMP 50Hz 0 KW
2018-05-23 06:42:36 175 V 0.00AMP 249V 0.50 AMP 50Hz 0 KW
2018-05-23 06:33:50 256 V 0.00AMP 250V 0.50 AMP 50Hz 0 KW
2018-05-23 06:25:04 162 V 0.00AMP 248V 0.50 AMP 50Hz 0 KW
2018-05-23 06:16:19 70 V 0.00AMP 253V 0.50 AMP 50Hz 0 KW
2018-05-23 18:28:26 202 V 0.00AMP 252V 0.60 AMP 50Hz 0 KW
2018-05-23 18:19:40 94 V 0.00AMP 250V 0.50 AMP 50Hz 0 KW
2018-05-23 18:10:54 284 V 0.00AMP 254V 0.80 AMP 50Hz 0 KW
2018-05-23 18:02:08 201 V 0.10AMP 251V 0.10 AMP 50Hz 20.1 KW
2018-05-23 17:53:23 214 V 0.40AMP 248V 0.30 AMP 50Hz 85.6 KW
2018-05-23 17:35:51 237 V 1.10AMP 251V 1.00 AMP 50Hz 260.7 KW
2018-05-23 17:27:06 242 V 0.70AMP 250V 0.60 AMP 50Hz 169.4 KW
2018-05-23 17:18:20 225 V 0.80AMP 250V 0.70 AMP 50Hz 180 KW
2018-05-23 17:09:34 240 V 1.10AMP 252V 1.00 AMP 50Hz 264 KW
2018-05-23 17:00:49 209 V 0.80AMP 256V 0.60 AMP 50Hz 167.2 KW
2018-05-23 16:52:03 260 V 1.60AMP 256V 1.50 AMP 50Hz 416 KW
2018-05-23 16:43:17 264 V 3.30AMP 257V 3.20 AMP 50Hz 871.2 KW
2018-05-23 16:34:32 271 V 4.10AMP 258V 4.10 AMP 50Hz 1111.1 KW
2018-05-23 16:25:45 261 V 2.60AMP 253V 2.60 AMP 50Hz 678.6 KW
2018-05-23 16:16:59 270 V 6.20AMP 264V 6.00 AMP 50Hz 1674 KW
2018-05-23 16:08:14 261 V 2.50AMP 255V 2.40 AMP 50Hz 652.5 KW
2018-05-23 15:59:28 269 V 3.20AMP 257V 3.20 AMP 50Hz 860.8 KW
2018-05-23 15:50:42 248 V 2.10AMP 252V 2.00 AMP 50Hz 520.8 KW
2018-05-23 15:41:57 265 V 3.10AMP 255V 3.10 AMP 50Hz 821.5 KW
2018-05-23 15:33:11 262 V 9.30AMP 264V 8.80 AMP 50Hz 2436.6 KW
2018-05-23 15:24:25 264 V 9.30AMP 266V 8.80 AMP 50Hz 2455.2 KW
2018-05-23 15:15:39 276 V 8.90AMP 266V 8.80 AMP 50Hz 2456.4 KW
2018-05-23 15:06:53 252 V 11.20AMP 266V 10.10 AMP 50Hz 2822.4 KW
2018-05-23 14:58:07 263 V 10.90AMP 264V 10.30 AMP 50Hz 2866.7 KW
2018-05-23 14:49:22 272 V 9.20AMP 260V 9.20 AMP 50Hz 2502.4 KW
2018-05-23 14:40:36 258 V 11.90AMP 267V 10.90 AMP 50Hz 3070.2 KW
2018-05-23 14:31:50 255 V 11.60AMP 264V 10.70 AMP 50Hz 2958 KW
2018-05-23 14:23:05 256 V 12.70AMP 267V 11.60 AMP 50Hz 3251.2 KW
2018-05-23 14:14:19 262 V 11.90AMP 263V 11.30 AMP 50Hz 3117.8 KW
2018-05-23 14:05:33 259 V 13.80AMP 265V 12.40 AMP 50Hz 3574.2 KW
2018-05-23 13:56:47 262 V 11.00AMP 258V 10.60 AMP 50Hz 2882 KW
2018-05-23 13:48:01 250 V 11.80AMP 261V 10.60 AMP 50Hz 2950 KW
2018-05-23 13:39:15 251 V 5.00AMP 245V 4.90 AMP 50Hz 1255 KW
2018-05-23 13:30:29 233 V 11.60AMP 256V 9.60 AMP 50Hz 2702.8 KW
2018-05-23 13:21:42 251 V 13.60AMP 263V 11.80 AMP 50Hz 3413.6 KW
2018-05-23 12:46:38 256 V 13.60AMP 265V 12.40 AMP 50Hz 3481.6 KW
2018-05-23 12:37:52 248 V 9.10AMP 252V 8.20 AMP 50Hz 2256.8 KW
2018-05-23 12:29:05 253 V 12.90AMP 261V 11.50 AMP 50Hz 3263.7 KW
2018-05-23 12:20:19 248 V 14.20AMP 268V 12.50 AMP 50Hz 3521.6 KW
2018-05-23 12:11:34 308 V 4.10AMP 252V 4.80 AMP 50Hz 1262.8 KW
2018-05-23 11:54:02 257 V 12.90AMP 266V 11.80 AMP 50Hz 3315.3 KW
2018-05-23 11:36:30 261 V 12.60AMP 268V 11.70 AMP 50Hz 3288.6 KW
2018-05-23 11:27:44 260 V 12.20AMP 266V 11.30 AMP 50Hz 3172 KW
2018-05-23 11:18:58 260 V 12.90AMP 265V 11.80 AMP 50Hz 3354 KW
2018-05-23 11:10:12 266 V 12.40AMP 266V 11.80 AMP 50Hz 3298.4 KW
2018-05-23 11:01:26 250 V 4.90AMP 249V 4.70 AMP 50Hz 1225 KW
2018-05-23 10:52:41 274 V 8.50AMP 253V 8.60 AMP 50Hz 2329 KW
2018-05-23 10:43:55 257 V 11.90AMP 261V 10.80 AMP 50Hz 3058.3 KW
2018-05-23 10:35:09 260 V 11.40AMP 260V 10.40 AMP 50Hz 2964 KW
2018-05-23 10:26:23 269 V 11.10AMP 266V 10.70 AMP 50Hz 2985.9 KW
2018-05-23 10:17:38 259 V 10.60AMP 260V 10.00 AMP 50Hz 2745.4 KW
2018-05-23 10:08:52 265 V 10.10AMP 258V 9.60 AMP 50Hz 2676.5 KW
2018-05-23 10:00:06 254 V 9.30AMP 248V 8.80 AMP 50Hz 2362.2 KW
2018-05-23 09:51:21 268 V 9.80AMP 258V 9.50 AMP 50Hz 2626.4 KW
2018-05-23 09:42:35 265 V 9.10AMP 257V 8.80 AMP 50Hz 2411.5 KW
2018-05-23 09:33:49 275 V 8.00AMP 255V 8.10 AMP 50Hz 2200 KW
2018-05-23 09:25:04 264 V 3.80AMP 250V 3.80 AMP 50Hz 1003.2 KW
2018-05-23 09:16:18 262 V 5.50AMP 252V 5.40 AMP 50Hz 1441 KW
2018-05-23 09:07:33 263 V 2.80AMP 247V 2.80 AMP 50Hz 736.4 KW
2018-05-23 08:58:47 273 V 5.10AMP 254V 5.20 AMP 50Hz 1392.3 KW
2018-05-23 08:50:01 271 V 5.60AMP 248V 5.80 AMP 50Hz 1517.6 KW
2018-05-23 08:41:16 279 V 4.70AMP 248V 5.00 AMP 50Hz 1311.3 KW
2018-05-23 08:32:30 275 V 4.50AMP 247V 4.80 AMP 50Hz 1237.5 KW
2018-05-23 08:23:44 279 V 4.80AMP 251V 5.10 AMP 50Hz 1339.2 KW
2018-05-23 08:14:57 278 V 4.40AMP 251V 4.60 AMP 50Hz 1223.2 KW
2018-05-23 08:06:09 281 V 2.90AMP 247V 3.10 AMP 50Hz 814.9 KW
2018-05-23 07:57:23 276 V 1.80AMP 247V 1.90 AMP 50Hz 496.8 KW
2018-05-23 07:48:38 281 V 1.30AMP 246V 1.40 AMP 50Hz 365.3 KW
2018-05-23 07:39:52 280 V 1.10AMP 242V 1.20 AMP 50Hz 308 KW
2018-05-23 07:31:06 257 V 0.80AMP 245V 0.80 AMP 50Hz 205.6 KW
2018-05-23 07:22:21 257 V 0.60AMP 245V 0.60 AMP 50Hz 154.2 KW
2018-05-23 07:13:35 189 V 0.60AMP 247V 0.40 AMP 50Hz 113.4 KW
2018-05-23 07:04:49 221 V 0.20AMP 254V 0.20 AMP 50Hz 44.2 KW
2018-05-23 06:56:04 196 V 0.10AMP 250V 0.10 AMP 50Hz 19.6 KW
2018-05-23 06:47:18 284 V 0.00AMP 246V 0.90 AMP 50Hz 0 KW
2018-05-23 06:38:33 107 V 0.00AMP 250V 0.70 AMP 50Hz 0 KW
2018-05-23 06:29:47 228 V 0.00AMP 249V 0.60 AMP 50Hz 0 KW
2018-05-23 06:21:01 160 V 0.00AMP 251V 0.60 AMP 50Hz 0 KW
2018-05-23 18:15:18 118 V 0.00AMP 251V 0.50 AMP 50Hz 0 KW
2018-05-23 18:06:33 76 V 0.00AMP 252V 0.60 AMP 50Hz 0 KW
2018-05-23 17:57:47 108 V 0.00AMP 248V 0.60 AMP 50Hz 0 KW
2018-05-23 17:49:01 77 V 0.00AMP 250V 0.70 AMP 50Hz 0 KW
2018-05-23 17:40:16 163 V 0.20AMP 255V 0.10 AMP 50Hz 32.6 KW
2018-05-23 17:31:30 253 V 0.00AMP 254V 0.70 AMP 50Hz 0 KW
2018-05-23 17:22:44 78 V 0.00AMP 252V 0.80 AMP 50Hz 0 KW
2018-05-23 17:13:59 234 V 0.00AMP 255V 1.00 AMP 50Hz 0 KW
2018-05-23 17:05:13 182 V 0.50AMP 256V 0.30 AMP 50Hz 91 KW
2018-05-23 16:56:27 216 V 0.60AMP 256V 0.50 AMP 50Hz 129.6 KW
2018-05-23 16:47:42 239 V 1.20AMP 256V 1.10 AMP 50Hz 286.8 KW
2018-05-23 16:38:56 266 V 4.60AMP 261V 4.50 AMP 50Hz 1223.6 KW
2018-05-23 16:30:10 256 V 5.70AMP 259V 5.40 AMP 50Hz 1459.2 KW
2018-05-23 16:21:25 258 V 6.50AMP 261V 6.10 AMP 50Hz 1677 KW
2018-05-23 16:12:39 256 V 3.60AMP 255V 3.40 AMP 50Hz 921.6 KW
2018-05-23 16:03:53 260 V 7.70AMP 261V 7.30 AMP 50Hz 2002 KW
2018-05-23 15:55:08 261 V 8.20AMP 261V 7.80 AMP 50Hz 2140.2 KW
2018-05-23 15:46:22 265 V 7.70AMP 258V 7.50 AMP 50Hz 2040.5 KW
2018-05-23 15:37:36 259 V 2.40AMP 247V 2.40 AMP 50Hz 621.6 KW
2018-05-23 15:28:51 257 V 9.20AMP 261V 8.60 AMP 50Hz 2364.4 KW
2018-05-23 15:20:05 252 V 10.70AMP 266V 9.60 AMP 50Hz 2696.4 KW
2018-05-23 15:11:19 259 V 10.60AMP 268V 9.70 AMP 50Hz 2745.4 KW
2018-05-23 15:02:34 269 V 3.40AMP 253V 3.40 AMP 50Hz 914.6 KW
2018-05-23 14:53:48 263 V 3.50AMP 252V 3.50 AMP 50Hz 920.5 KW
2018-05-23 14:45:02 257 V 3.30AMP 250V 3.20 AMP 50Hz 848.1 KW
2018-05-23 14:36:16 255 V 9.90AMP 264V 9.10 AMP 50Hz 2524.5 KW
2018-05-23 14:10:00 254 V 4.00AMP 251V 3.90 AMP 50Hz 1016 KW
2018-05-23 14:01:14 257 V 3.70AMP 252V 3.60 AMP 50Hz 950.9 KW
2018-05-23 13:43:42 251 V 5.20AMP 261V 4.80 AMP 50Hz 1305.2 KW
2018-05-23 13:17:24 244 V 5.20AMP 261V 4.60 AMP 50Hz 1268.8 KW
2018-05-23 12:51:05 302 V 4.10AMP 257V 4.60 AMP 50Hz 1238.2 KW
2018-05-23 12:42:19 314 V 0.00AMP 251V 0.10 AMP 50Hz 0 KW
2018-05-23 11:23:20 318 V 0.00AMP 251V 1.30 AMP 50Hz 0 KW
2018-05-23 11:14:34 317 V 0.00AMP 249V 2.80 AMP 50Hz 0 KW
2018-05-23 10:48:17 260 V 11.20AMP 261V 10.40 AMP 50Hz 2912 KW
2018-05-23 10:39:31 252 V 11.30AMP 260V 10.30 AMP 50Hz 2847.6 KW
2018-05-23 10:30:45 255 V 11.10AMP 261V 10.20 AMP 50Hz 2830.5 KW
2018-05-23 10:21:59 258 V 10.60AMP 250V 10.00 AMP 50Hz 2734.8 KW
2018-05-23 10:13:14 258 V 10.30AMP 255V 9.60 AMP 50Hz 2657.4 KW
2018-05-23 10:04:28 257 V 10.00AMP 251V 9.40 AMP 50Hz 2570 KW
2018-05-23 09:55:42 261 V 9.60AMP 254V 9.00 AMP 50Hz 2505.6 KW
2018-05-23 09:46:57 264 V 8.80AMP 255V 8.70 AMP 50Hz 2323.2 KW
2018-05-23 09:38:11 271 V 8.60AMP 256V 8.60 AMP 50Hz 2330.6 KW
2018-05-23 09:29:25 266 V 8.10AMP 248V 8.10 AMP 50Hz 2154.6 KW
2018-05-23 09:20:40 262 V 8.00AMP 250V 7.80 AMP 50Hz 2096 KW
2018-05-23 09:11:54 245 V 6.00AMP 246V 5.60 AMP 50Hz 1470 KW
2018-05-23 09:03:08 266 V 6.90AMP 248V 6.90 AMP 50Hz 1835.4 KW
2018-05-23 08:54:23 269 V 6.40AMP 253V 6.50 AMP 50Hz 1721.6 KW
2018-05-23 08:45:37 273 V 5.70AMP 253V 5.80 AMP 50Hz 1556.1 KW
2018-05-23 08:36:51 258 V 3.30AMP 247V 3.30 AMP 50Hz 851.4 KW
2018-05-23 08:28:05 275 V 4.00AMP 252V 4.20 AMP 50Hz 1100 KW
2018-05-23 08:19:20 272 V 3.70AMP 251V 3.80 AMP 50Hz 1006.4 KW
2018-05-23 08:10:34 274 V 3.30AMP 251V 3.40 AMP 50Hz 904.2 KW
2018-05-23 07:52:30 267 V 2.50AMP 254V 2.50 AMP 50Hz 667.5 KW
2018-05-23 07:43:44 279 V 1.80AMP 251V 1.90 AMP 50Hz 502.2 KW
2018-05-23 07:34:59 241 V 1.30AMP 253V 1.20 AMP 50Hz 313.3 KW
2018-05-23 07:26:13 253 V 0.90AMP 249V 0.90 AMP 50Hz 227.7 KW
2018-05-23 07:17:27 233 V 0.80AMP 253V 0.70 AMP 50Hz 186.4 KW
2018-05-23 07:08:41 261 V 0.60AMP 253V 0.60 AMP 50Hz 156.6 KW
2018-05-23 06:59:55 222 V 0.50AMP 255V 0.40 AMP 50Hz 111 KW
2018-05-23 06:33:38 102 V 0.00AMP 248V 0.60 AMP 50Hz 0 KW
2018-05-23 06:24:52 166 V 0.00AMP 249V 0.60 AMP 50Hz 0 KW
2018-05-23 06:16:07 174 V 0.00AMP 251V 0.50 AMP 50Hz 0 KW
2018-05-23 18:18:55 98 V 0.00AMP 246V 0.60 AMP 50Hz 0 KW
2018-05-23 18:10:09 71 V 0.00AMP 247V 0.60 AMP 50Hz 0 KW
2018-05-23 18:01:23 219 V 0.00AMP 252V 0.70 AMP 50Hz 0 KW
2018-05-23 17:52:38 273 V 0.00AMP 248V 0.70 AMP 50Hz 0 KW
2018-05-23 17:43:52 143 V 0.20AMP 252V 0.10 AMP 50Hz 28.6 KW
2018-05-23 17:35:06 208 V 1.20AMP 255V 0.90 AMP 50Hz 249.6 KW
2018-05-23 17:26:21 243 V 1.80AMP 252V 1.70 AMP 50Hz 437.4 KW
2018-05-23 17:17:35 267 V 2.10AMP 251V 2.10 AMP 50Hz 560.7 KW
2018-05-23 17:08:48 263 V 2.80AMP 253V 2.80 AMP 50Hz 736.4 KW
2018-05-23 16:59:54 267 V 3.40AMP 250V 3.50 AMP 50Hz 907.8 KW
2018-05-23 16:51:08 264 V 3.90AMP 254V 3.90 AMP 50Hz 1029.6 KW
2018-05-23 16:42:22 267 V 4.40AMP 257V 4.30 AMP 50Hz 1174.8 KW
2018-05-23 16:33:36 264 V 4.20AMP 254V 4.20 AMP 50Hz 1108.8 KW
2018-05-23 16:24:48 264 V 4.60AMP 255V 4.50 AMP 50Hz 1214.4 KW
2018-05-23 16:16:03 270 V 4.70AMP 255V 4.70 AMP 50Hz 1269 KW
2018-05-23 16:07:17 264 V 5.30AMP 257V 5.20 AMP 50Hz 1399.2 KW
2018-05-23 15:58:31 269 V 5.40AMP 252V 5.50 AMP 50Hz 1452.6 KW
2018-05-23 15:49:45 258 V 2.70AMP 243V 2.70 AMP 50Hz 696.6 KW
2018-05-23 15:41:00 251 V 3.70AMP 242V 3.70 AMP 50Hz 928.7 KW
2018-05-23 15:32:14 255 V 8.70AMP 254V 8.30 AMP 50Hz 2218.5 KW
2018-05-23 15:23:28 260 V 9.00AMP 256V 8.60 AMP 50Hz 2340 KW
2018-05-23 15:14:43 258 V 10.10AMP 263V 9.40 AMP 50Hz 2605.8 KW
2018-05-23 15:05:57 260 V 10.80AMP 266V 10.00 AMP 50Hz 2808 KW
2018-05-23 14:57:11 257 V 10.60AMP 265V 9.80 AMP 50Hz 2724.2 KW
2018-05-23 14:48:26 254 V 11.00AMP 264V 10.10 AMP 50Hz 2794 KW
2018-05-23 14:39:40 256 V 11.50AMP 265V 10.60 AMP 50Hz 2944 KW
2018-05-23 14:30:54 260 V 11.80AMP 267V 10.90 AMP 50Hz 3068 KW
2018-05-23 14:22:08 253 V 12.40AMP 267V 11.20 AMP 50Hz 3137.2 KW
2018-05-23 14:13:22 258 V 12.40AMP 268V 11.40 AMP 50Hz 3199.2 KW
2018-05-23 13:38:19 250 V 5.40AMP 260V 4.90 AMP 50Hz 1350 KW
2018-05-23 12:36:59 264 V 4.60AMP 253V 4.60 AMP 50Hz 1214.4 KW
2018-05-23 11:53:10 251 V 12.80AMP 268V 11.40 AMP 50Hz 3212.8 KW
2018-05-23 11:44:24 0 V 0.00AMP 266V 11.80 AMP 50Hz 0 KW
2018-05-23 11:35:38 253 V 10.90AMP 262V 10.00 AMP 50Hz 2757.7 KW
2018-05-23 11:26:51 266 V 8.30AMP 258V 8.10 AMP 50Hz 2207.8 KW
2018-05-23 11:18:06 265 V 7.30AMP 258V 7.10 AMP 50Hz 1934.5 KW
2018-05-23 11:09:20 263 V 6.20AMP 253V 6.10 AMP 50Hz 1630.6 KW
2018-05-23 11:00:34 261 V 6.50AMP 258V 6.30 AMP 50Hz 1696.5 KW
2018-05-23 10:51:49 260 V 7.60AMP 260V 7.20 AMP 50Hz 1976 KW
2018-05-23 10:43:03 256 V 8.80AMP 261V 8.20 AMP 50Hz 2252.8 KW
2018-05-23 10:34:16 259 V 9.30AMP 260V 8.80 AMP 50Hz 2408.7 KW
2018-05-23 10:25:29 255 V 9.10AMP 261V 8.50 AMP 50Hz 2320.5 KW
2018-05-23 10:16:43 261 V 9.30AMP 262V 8.80 AMP 50Hz 2427.3 KW
2018-05-23 10:07:57 253 V 10.90AMP 264V 9.90 AMP 50Hz 2757.7 KW
2018-05-23 09:59:11 258 V 10.20AMP 262V 9.50 AMP 50Hz 2631.6 KW
2018-05-23 09:50:26 266 V 9.50AMP 261V 9.10 AMP 50Hz 2527 KW
2018-05-23 09:41:40 265 V 8.60AMP 264V 8.20 AMP 50Hz 2279 KW
2018-05-23 09:32:54 262 V 8.30AMP 261V 7.90 AMP 50Hz 2174.6 KW
2018-05-23 09:24:06 264 V 7.60AMP 260V 7.30 AMP 50Hz 2006.4 KW
2018-05-23 09:15:21 265 V 6.90AMP 255V 6.80 AMP 50Hz 1828.5 KW
2018-05-23 09:06:35 266 V 6.90AMP 251V 7.00 AMP 50Hz 1835.4 KW
2018-05-23 08:57:50 269 V 6.00AMP 253V 6.10 AMP 50Hz 1614 KW
2018-05-23 08:49:04 271 V 5.60AMP 254V 5.70 AMP 50Hz 1517.6 KW
2018-05-23 08:40:19 275 V 4.90AMP 250V 5.10 AMP 50Hz 1347.5 KW
2018-05-23 08:31:33 273 V 4.70AMP 246V 5.00 AMP 50Hz 1283.1 KW
2018-05-23 08:22:47 267 V 3.20AMP 249V 3.30 AMP 50Hz 854.4 KW
2018-05-23 08:14:01 270 V 2.30AMP 242V 2.40 AMP 50Hz 621 KW
2018-05-23 08:05:15 272 V 2.10AMP 240V 2.30 AMP 50Hz 571.2 KW
2018-05-23 07:56:29 276 V 1.60AMP 242V 1.70 AMP 50Hz 441.6 KW
2018-05-23 07:47:44 246 V 1.10AMP 244V 1.10 AMP 50Hz 270.6 KW
2018-05-23 07:38:56 245 V 0.90AMP 245V 0.90 AMP 50Hz 220.5 KW
2018-05-23 07:30:10 222 V 0.80AMP 242V 0.70 AMP 50Hz 177.6 KW
2018-05-23 07:21:25 244 V 0.70AMP 246V 0.70 AMP 50Hz 170.8 KW
2018-05-23 07:12:39 252 V 0.50AMP 241V 0.50 AMP 50Hz 126 KW
2018-05-23 07:03:54 233 V 0.30AMP 246V 0.30 AMP 50Hz 69.9 KW
2018-05-23 06:55:08 160 V 0.10AMP 248V 0.10 AMP 50Hz 16 KW
2018-05-23 06:46:23 73 V 0.00AMP 245V 0.70 AMP 50Hz 0 KW
2018-05-23 06:37:37 263 V 0.00AMP 246V 0.70 AMP 50Hz 0 KW
2018-05-23 06:28:52 91 V 0.00AMP 245V 0.60 AMP 50Hz 0 KW
2018-05-23 06:20:06 203 V 0.00AMP 248V 0.40 AMP 50Hz 0 KW
2018-05-23 06:11:20 145 V 0.00AMP 247V 0.50 AMP 50Hz 0 KW
2018-05-23 18:31:54 82 V 0.00AMP 239V 0.70 AMP 50Hz 0 KW
2018-05-23 18:23:08 180 V 0.00AMP 245V 0.70 AMP 50Hz 0 KW
2018-05-23 18:14:15 228 V 0.00AMP 246V 0.70 AMP 50Hz 0 KW
2018-05-23 18:05:29 224 V 0.20AMP 247V 0.20 AMP 50Hz 44.8 KW
2018-05-23 17:56:44 234 V 0.50AMP 244V 0.50 AMP 50Hz 117 KW
2018-05-23 17:47:58 238 V 0.80AMP 249V 0.70 AMP 50Hz 190.4 KW
2018-05-23 17:39:12 235 V 0.80AMP 247V 0.70 AMP 50Hz 188 KW
2018-05-23 09:27:54 264 V 7.70AMP 264V 7.30 AMP 50Hz 2032.8 KW
2018-05-23 09:19:06 270 V 6.90AMP 253V 7.00 AMP 50Hz 1863 KW
2018-05-23 09:10:19 267 V 6.50AMP 253V 6.50 AMP 50Hz 1735.5 KW
2018-05-23 09:01:34 265 V 6.10AMP 252V 6.10 AMP 50Hz 1616.5 KW
2018-05-23 08:52:48 297 V 4.10AMP 251V 4.60 AMP 50Hz 1217.7 KW
2018-05-23 07:51:23 272 V 2.10AMP 251V 2.20 AMP 50Hz 571.2 KW
2018-05-23 07:42:37 269 V 1.70AMP 257V 1.70 AMP 50Hz 457.3 KW
2018-05-23 07:33:52 268 V 1.30AMP 252V 1.30 AMP 50Hz 348.4 KW
2018-05-23 07:25:04 252 V 1.00AMP 247V 1.00 AMP 50Hz 252 KW
2018-05-23 07:16:18 260 V 0.80AMP 246V 0.80 AMP 50Hz 208 KW
2018-05-23 07:07:33 258 V 0.50AMP 251V 0.50 AMP 50Hz 129 KW
2018-05-23 06:58:47 243 V 0.30AMP 251V 0.30 AMP 50Hz 72.9 KW
2018-05-23 06:50:01 238 V 0.10AMP 249V 0.10 AMP 50Hz 23.8 KW
2018-05-23 06:41:16 155 V 0.00AMP 246V 0.70 AMP 50Hz 0 KW
2018-05-23 06:32:30 164 V 0.00AMP 244V 0.50 AMP 50Hz 0 KW
2018-05-23 06:23:44 186 V 0.00AMP 246V 0.60 AMP 50Hz 0 KW
2018-05-23 06:14:59 80 V 0.00AMP 247V 0.50 AMP 50Hz 0 KW
2018-05-23 18:27:04 73 V 0.00AMP 246V 0.80 AMP 50Hz 0 KW
2018-05-23 18:18:19 113 V 0.00AMP 248V 0.70 AMP 50Hz 0 KW
2018-05-23 18:09:33 262 V 0.00AMP 250V 0.80 AMP 50Hz 0 KW
2018-05-23 18:00:47 148 V 0.10AMP 251V 0.10 AMP 50Hz 14.8 KW
2018-05-23 17:42:43 227 V 0.80AMP 249V 0.70 AMP 50Hz 181.6 KW
2018-05-23 17:33:57 229 V 1.10AMP 249V 1.00 AMP 50Hz 251.9 KW
2018-05-23 17:25:12 244 V 1.50AMP 244V 1.40 AMP 50Hz 366 KW
2018-05-23 17:16:26 265 V 2.00AMP 246V 2.00 AMP 50Hz 530 KW
2018-05-23 17:07:40 269 V 2.60AMP 247V 2.70 AMP 50Hz 699.4 KW
2018-05-23 16:58:55 261 V 3.20AMP 242V 3.30 AMP 50Hz 835.2 KW
2018-05-23 16:50:09 248 V 2.30AMP 243V 2.20 AMP 50Hz 570.4 KW
2018-05-23 16:41:23 260 V 1.50AMP 239V 1.60 AMP 50Hz 390 KW
2018-05-23 16:32:38 267 V 4.70AMP 245V 4.90 AMP 50Hz 1254.9 KW
2018-05-23 16:23:52 258 V 5.10AMP 245V 5.10 AMP 50Hz 1315.8 KW
2018-05-23 16:15:06 265 V 5.70AMP 244V 5.90 AMP 50Hz 1510.5 KW
2018-05-23 16:06:20 261 V 6.70AMP 249V 6.70 AMP 50Hz 1748.7 KW
2018-05-23 15:57:35 258 V 7.40AMP 254V 7.10 AMP 50Hz 1909.2 KW
2018-05-23 15:48:49 263 V 8.00AMP 258V 7.80 AMP 50Hz 2104 KW
2018-05-23 15:40:01 259 V 8.60AMP 261V 8.10 AMP 50Hz 2227.4 KW
2018-05-23 15:31:15 263 V 8.90AMP 260V 8.60 AMP 50Hz 2340.7 KW
2018-05-23 15:22:29 254 V 10.60AMP 261V 9.70 AMP 50Hz 2692.4 KW
2018-05-23 15:13:44 267 V 5.70AMP 255V 5.70 AMP 50Hz 1521.9 KW
2018-05-23 15:04:58 263 V 5.30AMP 251V 5.30 AMP 50Hz 1393.9 KW
2018-05-23 14:56:12 264 V 7.90AMP 258V 7.70 AMP 50Hz 2085.6 KW
2018-05-23 14:47:27 326 V 0.00AMP 243V 0.90 AMP 50Hz 0 KW
2018-05-23 14:38:41 265 V 7.80AMP 252V 7.70 AMP 50Hz 2067 KW
2018-05-23 14:29:55 262 V 9.90AMP 258V 9.20 AMP 50Hz 2593.8 KW
2018-05-23 14:21:10 251 V 6.20AMP 248V 6.00 AMP 50Hz 1556.2 KW
2018-05-23 14:12:24 252 V 13.90AMP 263V 12.30 AMP 50Hz 3502.8 KW
2018-05-23 14:03:38 250 V 14.50AMP 266V 12.70 AMP 50Hz 3625 KW
2018-05-23 13:54:51 248 V 7.30AMP 251V 6.80 AMP 50Hz 1810.4 KW
2018-05-23 13:46:05 243 V 15.50AMP 267V 13.20 AMP 50Hz 3766.5 KW
2018-05-23 13:37:19 248 V 6.70AMP 249V 6.30 AMP 50Hz 1661.6 KW
2018-05-23 13:19:48 238 V 13.10AMP 267V 11.10 AMP 50Hz 3117.8 KW
2018-05-23 13:02:17 247 V 9.00AMP 258V 8.20 AMP 50Hz 2223 KW
2018-05-23 12:44:45 257 V 10.10AMP 261V 9.50 AMP 50Hz 2595.7 KW
2018-05-23 12:36:00 242 V 11.00AMP 261V 9.70 AMP 50Hz 2662 KW
2018-05-23 12:27:13 265 V 10.60AMP 261V 10.00 AMP 50Hz 2809 KW
2018-05-23 12:18:28 269 V 9.10AMP 259V 8.90 AMP 50Hz 2447.9 KW
2018-05-23 12:09:42 263 V 8.70AMP 257V 8.50 AMP 50Hz 2288.1 KW
2018-05-23 12:00:57 264 V 8.30AMP 255V 8.10 AMP 50Hz 2191.2 KW
2018-05-23 11:52:11 262 V 8.60AMP 249V 8.50 AMP 50Hz 2253.2 KW
2018-05-23 11:43:26 268 V 8.20AMP 251V 8.10 AMP 50Hz 2197.6 KW
2018-05-23 11:34:40 271 V 7.20AMP 251V 7.30 AMP 50Hz 1951.2 KW
2018-05-23 11:25:54 267 V 7.30AMP 249V 7.40 AMP 50Hz 1949.1 KW
2018-05-23 11:17:09 270 V 7.30AMP 253V 7.40 AMP 50Hz 1971 KW
2018-05-23 11:08:23 273 V 7.30AMP 251V 7.60 AMP 50Hz 1992.9 KW
2018-05-23 10:59:37 271 V 6.40AMP 249V 6.60 AMP 50Hz 1734.4 KW
2018-05-23 10:50:52 274 V 6.70AMP 250V 6.90 AMP 50Hz 1835.8 KW
2018-05-23 10:42:06 273 V 6.30AMP 249V 6.60 AMP 50Hz 1719.9 KW
2018-05-23 10:33:20 280 V 5.30AMP 240V 5.90 AMP 50Hz 1484 KW
2018-05-23 10:24:35 278 V 4.80AMP 243V 5.20 AMP 50Hz 1334.4 KW
2018-05-23 10:15:49 278 V 4.70AMP 243V 5.10 AMP 50Hz 1306.6 KW
2018-05-23 10:07:04 282 V 4.60AMP 241V 5.10 AMP 50Hz 1297.2 KW
2018-05-23 09:58:18 277 V 3.90AMP 240V 4.30 AMP 50Hz 1080.3 KW
2018-05-23 09:49:33 282 V 2.80AMP 237V 3.20 AMP 50Hz 789.6 KW
2018-05-23 09:40:47 277 V 2.40AMP 239V 2.60 AMP 50Hz 664.8 KW
2018-05-23 09:32:02 276 V 2.40AMP 240V 2.60 AMP 50Hz 662.4 KW
2018-05-23 09:23:16 276 V 2.40AMP 236V 2.70 AMP 50Hz 662.4 KW
2018-05-23 09:14:30 270 V 2.40AMP 237V 2.60 AMP 50Hz 648 KW
2018-05-23 09:05:45 271 V 2.40AMP 240V 2.60 AMP 50Hz 650.4 KW
2018-05-23 08:56:59 266 V 2.30AMP 241V 2.40 AMP 50Hz 611.8 KW
2018-05-23 08:48:14 279 V 2.10AMP 246V 2.30 AMP 50Hz 585.9 KW
2018-05-23 08:39:29 267 V 1.90AMP 242V 2.00 AMP 50Hz 507.3 KW
2018-05-23 08:30:43 279 V 1.60AMP 246V 1.70 AMP 50Hz 446.4 KW
2018-05-23 08:21:57 267 V 1.20AMP 242V 1.30 AMP 50Hz 320.4 KW
2018-05-23 08:13:12 263 V 0.80AMP 242V 0.80 AMP 50Hz 210.4 KW
2018-05-23 08:04:26 247 V 0.40AMP 246V 0.40 AMP 50Hz 98.8 KW
2018-05-23 07:55:41 105 V 0.20AMP 246V 0.10 AMP 50Hz 21 KW
2018-05-23 07:38:10 284 V 0.00AMP 240V 0.80 AMP 50Hz 0 KW
2018-05-23 07:29:24 0 V 0.00AMP 238V 0.70 AMP 50Hz 0 KW
2018-05-23 07:20:39 190 V 0.00AMP 238V 0.60 AMP 50Hz 0 KW
2018-05-23 07:11:53 120 V 0.00AMP 242V 0.60 AMP 50Hz 0 KW
2018-05-23 07:03:08 94 V 0.00AMP 244V 0.70 AMP 50Hz 0 KW
2018-05-23 06:54:23 194 V 0.00AMP 241V 0.70 AMP 50Hz 0 KW
2018-05-23 06:45:37 151 V 0.00AMP 242V 0.50 AMP 50Hz 0 KW
2018-05-23 06:36:49 146 V 0.00AMP 246V 0.50 AMP 50Hz 0 KW
2018-05-23 06:28:04 85 V 0.00AMP 247V 0.50 AMP 50Hz 0 KW
2018-05-23 06:19:19 154 V 0.00AMP 249V 0.50 AMP 50Hz 0 KW
2018-05-23 06:10:33 193 V 0.00AMP 250V 0.70 AMP 50Hz 0 KW
2018-05-23 17:56:03 148 V 0.00AMP 245V 0.60 AMP 50Hz 0 KW
2018-05-23 17:38:05 231 V 0.00AMP 248V 0.90 AMP 50Hz 0 KW
2018-05-23 17:29:19 246 V 0.00AMP 244V 0.90 AMP 50Hz 0 KW
2018-05-23 17:20:33 177 V 0.20AMP 250V 0.10 AMP 50Hz 35.4 KW
2018-05-23 17:11:48 230 V 0.60AMP 256V 0.50 AMP 50Hz 138 KW
2018-05-23 17:03:02 222 V 0.80AMP 257V 0.70 AMP 50Hz 177.6 KW
2018-05-23 16:54:16 236 V 1.10AMP 255V 1.00 AMP 50Hz 259.6 KW
2018-05-23 16:45:30 264 V 1.50AMP 253V 1.50 AMP 50Hz 396 KW
2018-05-23 16:36:43 260 V 2.10AMP 252V 2.10 AMP 50Hz 546 KW
2018-05-23 16:27:58 252 V 2.00AMP 248V 1.90 AMP 50Hz 504 KW
2018-05-23 16:19:12 264 V 1.40AMP 247V 1.40 AMP 50Hz 369.6 KW
2018-05-23 16:10:26 247 V 1.30AMP 249V 1.20 AMP 50Hz 321.1 KW
2018-05-23 16:01:40 272 V 1.30AMP 250V 1.30 AMP 50Hz 353.6 KW
2018-05-23 15:52:55 247 V 0.80AMP 246V 0.80 AMP 50Hz 197.6 KW
2018-05-23 15:44:09 203 V 0.20AMP 244V 0.20 AMP 50Hz 40.6 KW
2018-05-23 15:35:22 202 V 0.60AMP 248V 0.50 AMP 50Hz 121.2 KW
2018-05-23 15:26:36 263 V 1.20AMP 248V 1.20 AMP 50Hz 315.6 KW
2018-05-23 15:17:50 260 V 1.80AMP 249V 1.80 AMP 50Hz 468 KW
2018-05-23 15:09:04 270 V 5.50AMP 255V 5.50 AMP 50Hz 1485 KW
2018-05-23 15:00:19 258 V 2.40AMP 244V 2.40 AMP 50Hz 619.2 KW
2018-05-23 14:51:33 252 V 11.30AMP 261V 10.30 AMP 50Hz 2847.6 KW
2018-05-23 14:42:47 252 V 11.30AMP 262V 10.30 AMP 50Hz 2847.6 KW
2018-05-23 14:34:02 256 V 10.60AMP 259V 9.80 AMP 50Hz 2713.6 KW
2018-05-23 14:25:16 251 V 10.90AMP 261V 10.00 AMP 50Hz 2735.9 KW
2018-05-23 14:16:30 248 V 11.90AMP 265V 10.60 AMP 50Hz 2951.2 KW
2018-05-23 14:07:44 255 V 12.30AMP 266V 11.20 AMP 50Hz 3136.5 KW
2018-05-23 13:58:56 270 V 6.00AMP 258V 6.00 AMP 50Hz 1620 KW
2018-05-23 13:50:11 259 V 2.10AMP 246V 2.10 AMP 50Hz 543.9 KW
2018-05-23 13:41:24 258 V 3.10AMP 246V 3.10 AMP 50Hz 799.8 KW
2018-05-23 13:32:38 260 V 2.30AMP 247V 2.30 AMP 50Hz 598 KW
2018-05-23 13:23:51 259 V 12.70AMP 268V 11.70 AMP 50Hz 3289.3 KW
2018-05-23 12:48:47 250 V 12.20AMP 258V 10.90 AMP 50Hz 3050 KW
2018-05-23 12:40:01 256 V 12.80AMP 259V 11.80 AMP 50Hz 3276.8 KW
2018-05-23 12:31:15 245 V 13.20AMP 261V 11.60 AMP 50Hz 3234 KW
2018-05-23 12:22:30 246 V 13.00AMP 259V 11.40 AMP 50Hz 3198 KW
2018-05-23 12:13:44 252 V 12.60AMP 260V 11.40 AMP 50Hz 3175.2 KW
2018-05-23 12:04:57 253 V 12.90AMP 261V 11.40 AMP 50Hz 3263.7 KW
2018-05-23 11:56:12 254 V 12.80AMP 257V 11.50 AMP 50Hz 3251.2 KW
2018-05-23 11:47:26 251 V 13.20AMP 259V 11.80 AMP 50Hz 3313.2 KW
2018-05-23 11:38:40 254 V 12.00AMP 256V 10.90 AMP 50Hz 3048 KW
2018-05-23 11:29:54 245 V 13.20AMP 258V 11.40 AMP 50Hz 3234 KW
2018-05-23 11:21:06 249 V 12.60AMP 259V 11.10 AMP 50Hz 3137.4 KW
2018-05-23 11:12:18 255 V 12.50AMP 267V 11.40 AMP 50Hz 3187.5 KW
2018-05-23 11:03:33 251 V 12.20AMP 261V 10.90 AMP 50Hz 3062.2 KW
2018-05-23 10:54:47 255 V 11.80AMP 261V 10.90 AMP 50Hz 3009 KW
2018-05-23 10:46:01 260 V 11.40AMP 263V 10.60 AMP 50Hz 2964 KW
2018-05-23 10:37:16 254 V 11.50AMP 261V 10.40 AMP 50Hz 2921 KW
2018-05-23 10:28:30 259 V 10.60AMP 260V 10.00 AMP 50Hz 2745.4 KW
2018-05-23 10:19:44 255 V 10.50AMP 260V 9.80 AMP 50Hz 2677.5 KW
2018-05-23 10:10:59 258 V 10.50AMP 260V 9.90 AMP 50Hz 2709 KW
2018-05-23 10:02:13 267 V 9.70AMP 258V 9.40 AMP 50Hz 2589.9 KW
2018-05-23 09:53:27 260 V 9.80AMP 260V 9.30 AMP 50Hz 2548 KW
2018-05-23 09:44:42 265 V 9.10AMP 259V 8.80 AMP 50Hz 2411.5 KW
2018-05-23 09:35:56 268 V 8.50AMP 246V 8.70 AMP 50Hz 2278 KW
2018-05-23 09:27:10 271 V 8.20AMP 251V 8.20 AMP 50Hz 2222.2 KW
2018-05-23 09:18:25 268 V 6.90AMP 256V 6.90 AMP 50Hz 1849.2 KW
2018-05-23 09:09:39 265 V 7.10AMP 245V 7.20 AMP 50Hz 1881.5 KW
2018-05-23 09:00:53 267 V 6.50AMP 250V 6.60 AMP 50Hz 1735.5 KW
2018-05-23 08:52:08 273 V 5.10AMP 249V 5.30 AMP 50Hz 1392.3 KW
2018-05-23 08:43:23 279 V 4.80AMP 247V 5.20 AMP 50Hz 1339.2 KW
2018-05-23 08:34:37 278 V 3.40AMP 242V 3.70 AMP 50Hz 945.2 KW
2018-05-23 08:25:52 269 V 3.80AMP 246V 4.00 AMP 50Hz 1022.2 KW
2018-05-23 08:17:04 272 V 3.10AMP 243V 3.30 AMP 50Hz 843.2 KW
2018-05-23 08:08:18 265 V 2.40AMP 241V 2.50 AMP 50Hz 636 KW
2018-05-23 07:59:31 270 V 2.20AMP 237V 2.40 AMP 50Hz 594 KW
2018-05-23 07:50:43 267 V 1.50AMP 241V 1.60 AMP 50Hz 400.5 KW
2018-05-23 07:41:57 271 V 1.10AMP 237V 1.20 AMP 50Hz 298.1 KW
2018-05-23 07:33:12 261 V 1.10AMP 242V 1.10 AMP 50Hz 287.1 KW
2018-05-23 07:24:24 213 V 0.90AMP 240V 0.80 AMP 50Hz 191.7 KW
2018-05-23 07:15:38 237 V 0.50AMP 247V 0.50 AMP 50Hz 118.5 KW
2018-05-23 07:06:51 164 V 0.30AMP 248V 0.20 AMP 50Hz 49.2 KW
2018-05-23 06:58:05 210 V 0.10AMP 245V 0.10 AMP 50Hz 21 KW
2018-05-23 06:49:20 297 V 0.00AMP 243V 0.80 AMP 50Hz 0 KW
2018-05-23 06:40:34 183 V 0.00AMP 242V 0.70 AMP 50Hz 0 KW
2018-05-23 06:31:46 170 V 0.00AMP 244V 0.50 AMP 50Hz 0 KW
2018-05-23 06:22:58 164 V 0.00AMP 245V 0.50 AMP 50Hz 0 KW
2018-05-23 06:14:11 132 V 0.00AMP 249V 0.50 AMP 50Hz 0 KW
2018-05-23 18:26:10 107 V 0.00AMP 245V 0.80 AMP 50Hz 0 KW
2018-05-23 18:17:25 84 V 0.00AMP 251V 0.70 AMP 50Hz 0 KW
2018-05-23 18:08:38 234 V 0.00AMP 244V 0.70 AMP 50Hz 0 KW
2018-05-23 17:59:52 109 V 0.00AMP 248V 0.70 AMP 50Hz 0 KW
2018-05-23 17:51:07 118 V 0.00AMP 242V 0.70 AMP 50Hz 0 KW
2018-05-23 17:42:21 89 V 0.00AMP 242V 0.70 AMP 50Hz 0 KW
2018-05-23 17:33:35 181 V 0.20AMP 245V 0.10 AMP 50Hz 36.2 KW
2018-05-23 17:24:50 227 V 0.40AMP 245V 0.40 AMP 50Hz 90.8 KW
2018-05-23 17:16:04 226 V 0.60AMP 242V 0.50 AMP 50Hz 135.6 KW
2018-05-23 17:07:17 263 V 0.90AMP 250V 0.90 AMP 50Hz 236.7 KW
2018-05-23 16:58:32 269 V 1.30AMP 249V 1.30 AMP 50Hz 349.7 KW
2018-05-23 16:49:46 272 V 2.20AMP 248V 2.30 AMP 50Hz 598.4 KW
2018-05-23 16:41:00 275 V 2.10AMP 247V 2.20 AMP 50Hz 577.5 KW
2018-05-23 16:32:14 274 V 2.10AMP 250V 2.20 AMP 50Hz 575.4 KW
2018-05-23 16:23:28 284 V 1.80AMP 251V 1.90 AMP 50Hz 511.2 KW
2018-05-23 16:14:42 267 V 1.10AMP 248V 1.10 AMP 50Hz 293.7 KW
2018-05-23 16:05:55 186 V 0.50AMP 247V 0.40 AMP 50Hz 93 KW
2018-05-23 15:57:10 200 V 0.20AMP 245V 0.20 AMP 50Hz 40 KW
2018-05-23 15:39:36 77 V 0.00AMP 244V 0.80 AMP 50Hz 0 KW
2018-05-23 15:30:50 132 V 0.00AMP 243V 0.70 AMP 50Hz 0 KW
2018-05-23 15:22:04 177 V 0.00AMP 244V 0.70 AMP 50Hz 0 KW
2018-05-23 15:13:19 100 V 0.20AMP 245V 0.10 AMP 50Hz 20 KW
2018-05-23 15:04:33 253 V 9.30AMP 261V 8.60 AMP 50Hz 2352.9 KW
2018-05-23 14:55:46 259 V 11.10AMP 262V 10.20 AMP 50Hz 2874.9 KW
2018-05-23 14:46:59 254 V 3.80AMP 248V 3.70 AMP 50Hz 965.2 KW
2018-05-23 14:38:13 256 V 11.80AMP 262V 10.90 AMP 50Hz 3020.8 KW
2018-05-23 14:29:27 255 V 11.00AMP 261V 10.10 AMP 50Hz 2805 KW
2018-05-23 14:20:42 251 V 12.10AMP 265V 10.90 AMP 50Hz 3037.1 KW
2018-05-23 14:11:56 253 V 12.20AMP 266V 11.00 AMP 50Hz 3086.6 KW
2018-05-23 14:03:10 243 V 12.40AMP 267V 10.70 AMP 50Hz 3013.2 KW
2018-05-23 13:54:25 304 V 3.60AMP 253V 4.10 AMP 50Hz 1094.4 KW
2018-05-23 13:45:38 243 V 13.50AMP 268V 11.60 AMP 50Hz 3280.5 KW
2018-05-23 12:53:04 320 V 0.00AMP 243V 2.70 AMP 50Hz 0 KW
2018-05-23 12:44:18 246 V 12.00AMP 265V 10.60 AMP 50Hz 2952 KW
2018-05-23 12:00:22 256 V 7.30AMP 254V 7.00 AMP 50Hz 1868.8 KW
2018-05-23 11:51:36 252 V 7.70AMP 255V 7.20 AMP 50Hz 1940.4 KW
2018-05-23 11:42:50 248 V 9.30AMP 259V 8.30 AMP 50Hz 2306.4 KW
2018-05-23 11:34:04 256 V 14.20AMP 263V 12.80 AMP 50Hz 3635.2 KW
2018-05-23 11:07:47 253 V 12.20AMP 267V 10.90 AMP 50Hz 3086.6 KW
2018-05-23 10:59:02 246 V 13.70AMP 267V 11.80 AMP 50Hz 3370.2 KW
2018-05-23 10:50:16 265 V 9.30AMP 260V 9.00 AMP 50Hz 2464.5 KW
2018-05-23 10:41:30 260 V 11.60AMP 262V 10.70 AMP 50Hz 3016 KW
2018-05-23 10:32:44 258 V 10.90AMP 264V 10.10 AMP 50Hz 2812.2 KW
2018-05-23 10:23:59 255 V 10.80AMP 261V 10.00 AMP 50Hz 2754 KW
2018-05-23 10:15:13 253 V 10.80AMP 264V 9.80 AMP 50Hz 2732.4 KW
2018-05-23 10:06:27 258 V 10.40AMP 259V 9.60 AMP 50Hz 2683.2 KW
2018-05-23 09:57:42 271 V 9.10AMP 255V 9.10 AMP 50Hz 2466.1 KW
2018-05-23 09:48:56 271 V 7.80AMP 251V 8.00 AMP 50Hz 2113.8 KW
2018-05-23 09:40:11 269 V 6.10AMP 253V 6.20 AMP 50Hz 1640.9 KW
2018-05-23 09:31:26 270 V 4.10AMP 252V 4.20 AMP 50Hz 1107 KW
2018-05-23 09:22:40 274 V 3.40AMP 249V 3.60 AMP 50Hz 931.6 KW
2018-05-23 09:13:54 280 V 3.00AMP 248V 3.20 AMP 50Hz 840 KW
2018-05-23 09:05:09 277 V 3.10AMP 243V 3.40 AMP 50Hz 858.7 KW
2018-05-23 08:56:20 278 V 2.90AMP 243V 3.20 AMP 50Hz 806.2 KW
2018-05-23 08:47:35 268 V 2.40AMP 241V 2.50 AMP 50Hz 643.2 KW
2018-05-23 08:38:50 281 V 2.30AMP 240V 2.60 AMP 50Hz 646.3 KW
2018-05-23 08:30:04 275 V 1.80AMP 239V 2.00 AMP 50Hz 495 KW
2018-05-23 08:21:18 276 V 1.30AMP 236V 1.40 AMP 50Hz 358.8 KW
2018-05-23 08:12:32 255 V 1.00AMP 237V 1.00 AMP 50Hz 255 KW
2018-05-23 08:03:47 217 V 0.70AMP 241V 0.60 AMP 50Hz 151.9 KW
2018-05-23 07:55:01 225 V 0.40AMP 240V 0.40 AMP 50Hz 90 KW
2018-05-23 07:46:16 150 V 0.30AMP 236V 0.20 AMP 50Hz 45 KW
2018-05-23 07:37:30 226 V 0.30AMP 240V 0.30 AMP 50Hz 67.8 KW
2018-05-23 07:28:44 237 V 0.50AMP 240V 0.50 AMP 50Hz 118.5 KW
2018-05-23 07:11:12 191 V 0.30AMP 246V 0.20 AMP 50Hz 57.3 KW
2018-05-23 07:02:26 151 V 0.00AMP 251V 0.50 AMP 50Hz 0 KW
2018-05-23 06:53:40 266 V 0.00AMP 250V 0.60 AMP 50Hz 0 KW
2018-05-23 06:44:55 81 V 0.00AMP 250V 0.60 AMP 50Hz 0 KW
2018-05-23 06:36:09 183 V 0.00AMP 252V 0.60 AMP 50Hz 0 KW
2018-05-23 06:27:21 142 V 0.00AMP 247V 0.50 AMP 50Hz 0 KW
2018-05-23 06:18:33 68 V 0.00AMP 249V 0.50 AMP 50Hz 0 KW
2018-05-23 18:30:39 144 V 0.00AMP 249V 0.60 AMP 50Hz 0 KW
2018-05-23 18:21:53 134 V 0.00AMP 257V 0.70 AMP 50Hz 0 KW
2018-05-23 18:13:07 116 V 0.00AMP 253V 0.70 AMP 50Hz 0 KW
2018-05-23 18:04:21 261 V 0.00AMP 252V 0.80 AMP 50Hz 0 KW
2018-05-23 17:46:48 177 V 0.10AMP 241V 0.10 AMP 50Hz 17.7 KW
2018-05-23 17:38:02 225 V 0.40AMP 244V 0.40 AMP 50Hz 90 KW
2018-05-23 17:29:17 247 V 0.80AMP 243V 0.80 AMP 50Hz 197.6 KW
2018-05-23 17:20:31 202 V 0.60AMP 248V 0.50 AMP 50Hz 121.2 KW
2018-05-23 17:11:46 262 V 0.90AMP 245V 0.90 AMP 50Hz 235.8 KW
2018-05-23 17:02:59 257 V 1.50AMP 244V 1.50 AMP 50Hz 385.5 KW
2018-05-23 16:54:13 272 V 1.70AMP 246V 1.80 AMP 50Hz 462.4 KW
2018-05-23 16:45:28 258 V 1.80AMP 244V 1.80 AMP 50Hz 464.4 KW
2018-05-23 16:36:42 268 V 2.30AMP 246V 2.40 AMP 50Hz 616.4 KW
2018-05-23 16:27:56 266 V 2.50AMP 247V 2.60 AMP 50Hz 665 KW
2018-05-23 16:19:11 266 V 2.90AMP 251V 2.90 AMP 50Hz 771.4 KW
2018-05-23 16:10:25 263 V 4.70AMP 255V 4.60 AMP 50Hz 1236.1 KW
2018-05-23 16:01:39 261 V 7.00AMP 258V 6.70 AMP 50Hz 1827 KW
2018-05-23 15:52:54 269 V 4.50AMP 252V 4.60 AMP 50Hz 1210.5 KW
2018-05-23 15:44:08 274 V 4.10AMP 250V 4.30 AMP 50Hz 1123.4 KW
2018-05-23 15:35:23 270 V 4.60AMP 251V 4.70 AMP 50Hz 1242 KW
2018-05-23 15:26:37 276 V 4.40AMP 252V 4.60 AMP 50Hz 1214.4 KW
2018-05-23 15:17:51 268 V 4.40AMP 253V 4.40 AMP 50Hz 1179.2 KW
2018-05-23 15:09:04 267 V 4.70AMP 252V 4.70 AMP 50Hz 1254.9 KW
2018-05-23 15:00:19 269 V 5.70AMP 252V 5.80 AMP 50Hz 1533.3 KW
2018-05-23 14:51:33 269 V 5.20AMP 250V 5.30 AMP 50Hz 1398.8 KW
2018-05-23 14:42:47 259 V 6.80AMP 252V 6.60 AMP 50Hz 1761.2 KW
2018-05-23 14:34:02 262 V 6.20AMP 254V 6.10 AMP 50Hz 1624.4 KW
2018-05-23 14:25:16 260 V 7.10AMP 256V 6.90 AMP 50Hz 1846 KW
2018-05-23 14:16:31 255 V 10.30AMP 262V 9.50 AMP 50Hz 2626.5 KW
2018-05-23 14:07:45 261 V 10.40AMP 262V 9.90 AMP 50Hz 2714.4 KW
2018-05-23 13:59:00 257 V 11.50AMP 267V 10.50 AMP 50Hz 2955.5 KW
2018-05-23 13:50:14 258 V 9.40AMP 262V 8.80 AMP 50Hz 2425.2 KW
2018-05-23 13:41:29 265 V 10.80AMP 266V 10.20 AMP 50Hz 2862 KW
2018-05-23 13:32:43 256 V 9.70AMP 262V 9.00 AMP 50Hz 2483.2 KW
2018-05-23 13:15:12 266 V 7.80AMP 259V 7.60 AMP 50Hz 2074.8 KW
2018-05-23 13:06:26 264 V 8.60AMP 260V 8.30 AMP 50Hz 2270.4 KW
2018-05-23 12:57:40 261 V 6.90AMP 257V 6.70 AMP 50Hz 1800.9 KW
2018-05-23 12:48:55 273 V 6.40AMP 255V 6.50 AMP 50Hz 1747.2 KW
2018-05-23 12:40:09 272 V 5.60AMP 255V 5.70 AMP 50Hz 1523.2 KW
2018-05-23 12:31:23 269 V 5.80AMP 256V 5.80 AMP 50Hz 1560.2 KW
2018-05-23 12:22:38 266 V 6.70AMP 258V 6.60 AMP 50Hz 1782.2 KW
2018-05-23 12:13:52 267 V 6.20AMP 254V 6.20 AMP 50Hz 1655.4 KW
2018-05-23 12:05:06 267 V 6.30AMP 257V 6.20 AMP 50Hz 1682.1 KW
2018-05-23 11:56:21 264 V 6.60AMP 253V 6.50 AMP 50Hz 1742.4 KW
2018-05-23 11:47:35 265 V 7.00AMP 248V 7.00 AMP 50Hz 1855 KW
2018-05-23 11:38:49 268 V 6.60AMP 250V 6.70 AMP 50Hz 1768.8 KW
2018-05-23 10:37:28 269 V 3.60AMP 248V 3.70 AMP 50Hz 968.4 KW
2018-05-23 10:28:43 268 V 4.20AMP 250V 4.30 AMP 50Hz 1125.6 KW
2018-05-23 10:19:57 266 V 5.50AMP 252V 5.50 AMP 50Hz 1463 KW
2018-05-23 10:11:12 270 V 10.30AMP 260V 10.20 AMP 50Hz 2781 KW
2018-05-23 10:02:26 273 V 6.30AMP 252V 6.50 AMP 50Hz 1719.9 KW
2018-05-23 09:53:39 278 V 4.50AMP 249V 4.80 AMP 50Hz 1251 KW
2018-05-23 09:44:54 272 V 4.00AMP 244V 4.20 AMP 50Hz 1088 KW
2018-05-23 09:36:08 276 V 2.70AMP 246V 2.90 AMP 50Hz 745.2 KW
2018-05-23 09:27:23 281 V 2.20AMP 243V 2.40 AMP 50Hz 618.2 KW
2018-05-23 09:18:37 276 V 2.30AMP 245V 2.50 AMP 50Hz 634.8 KW
2018-05-23 09:09:52 277 V 2.10AMP 246V 2.20 AMP 50Hz 581.7 KW
2018-05-23 09:01:06 265 V 1.80AMP 251V 1.80 AMP 50Hz 477 KW
2018-05-23 08:52:21 276 V 1.50AMP 248V 1.60 AMP 50Hz 414 KW
2018-05-23 08:43:35 263 V 1.50AMP 249V 1.50 AMP 50Hz 394.5 KW
2018-05-23 08:34:49 281 V 1.40AMP 244V 1.50 AMP 50Hz 393.4 KW
2018-05-23 08:26:04 275 V 1.40AMP 240V 1.50 AMP 50Hz 385 KW
2018-05-23 08:17:18 262 V 1.40AMP 241V 1.40 AMP 50Hz 366.8 KW
2018-05-23 08:08:32 267 V 1.30AMP 249V 1.30 AMP 50Hz 347.1 KW
2018-05-23 07:59:47 226 V 0.80AMP 248V 0.70 AMP 50Hz 180.8 KW
2018-05-23 07:51:01 242 V 0.40AMP 246V 0.40 AMP 50Hz 96.8 KW
2018-05-23 07:42:15 220 V 0.40AMP 243V 0.30 AMP 50Hz 88 KW
2018-05-23 07:33:30 254 V 0.40AMP 240V 0.40 AMP 50Hz 101.6 KW
2018-05-23 07:24:45 145 V 0.20AMP 245V 0.10 AMP 50Hz 29 KW
2018-05-23 07:15:59 241 V 0.20AMP 251V 0.20 AMP 50Hz 48.2 KW
2018-05-23 07:07:14 280 V 0.00AMP 244V 0.90 AMP 50Hz 0 KW
2018-05-23 06:58:28 125 V 0.00AMP 244V 0.70 AMP 50Hz 0 KW
2018-05-23 06:49:42 236 V 0.00AMP 248V 0.50 AMP 50Hz 0 KW
2018-05-23 06:40:57 71 V 0.00AMP 252V 0.70 AMP 50Hz 0 KW
2018-05-23 06:32:11 222 V 0.00AMP 254V 0.60 AMP 50Hz 0 KW
2018-05-23 06:23:25 80 V 0.00AMP 251V 0.70 AMP 50Hz 0 KW
2018-05-23 06:14:40 88 V 0.00AMP 245V 0.70 AMP 50Hz 0 KW
2018-05-23 18:26:50 99 V 0.00AMP 248V 0.60 AMP 50Hz 0 KW
2018-05-23 18:09:19 70 V 0.00AMP 244V 0.60 AMP 50Hz 0 KW
2018-05-23 18:00:32 144 V 0.00AMP 248V 1.20 AMP 50Hz 0 KW
2018-05-23 17:51:45 101 V 0.00AMP 244V 0.60 AMP 50Hz 0 KW
2018-05-23 17:42:59 120 V 0.00AMP 247V 0.70 AMP 50Hz 0 KW
2018-05-23 17:34:14 263 V 0.00AMP 249V 0.70 AMP 50Hz 0 KW
2018-05-23 17:25:28 227 V 0.00AMP 249V 0.80 AMP 50Hz 0 KW
2018-05-23 17:16:42 276 V 0.00AMP 248V 0.90 AMP 50Hz 0 KW
2018-05-23 17:07:56 230 V 0.00AMP 249V 0.70 AMP 50Hz 0 KW
2018-05-23 16:59:11 82 V 0.00AMP 246V 0.70 AMP 50Hz 0 KW
2018-05-23 16:41:39 214 V 0.40AMP 249V 0.30 AMP 50Hz 85.6 KW
2018-05-23 16:32:54 257 V 1.80AMP 251V 1.80 AMP 50Hz 462.6 KW
2018-05-23 16:24:08 260 V 4.90AMP 252V 4.80 AMP 50Hz 1274 KW
2018-05-23 16:15:22 252 V 5.80AMP 250V 5.60 AMP 50Hz 1461.6 KW
2018-05-23 16:06:36 265 V 3.10AMP 251V 3.10 AMP 50Hz 821.5 KW
2018-05-23 15:57:50 253 V 5.70AMP 244V 5.60 AMP 50Hz 1442.1 KW
2018-05-23 15:49:04 257 V 5.70AMP 244V 5.70 AMP 50Hz 1464.9 KW
2018-05-23 15:40:19 252 V 9.00AMP 252V 8.50 AMP 50Hz 2268 KW
2018-05-23 15:31:32 253 V 10.80AMP 258V 9.90 AMP 50Hz 2732.4 KW
2018-05-23 15:22:46 251 V 11.10AMP 260V 10.00 AMP 50Hz 2786.1 KW
2018-05-23 15:14:01 241 V 11.20AMP 260V 9.90 AMP 50Hz 2699.2 KW
2018-05-23 15:05:14 245 V 11.70AMP 262V 10.30 AMP 50Hz 2866.5 KW
2018-05-23 14:47:41 249 V 11.30AMP 256V 10.30 AMP 50Hz 2813.7 KW
2018-05-23 14:38:55 247 V 11.70AMP 254V 10.50 AMP 50Hz 2889.9 KW
2018-05-23 14:30:09 248 V 12.10AMP 259V 10.90 AMP 50Hz 3000.8 KW
2018-05-23 14:21:23 245 V 12.50AMP 258V 11.10 AMP 50Hz 3062.5 KW
2018-05-23 14:12:37 248 V 12.30AMP 262V 10.90 AMP 50Hz 3050.4 KW
2018-05-23 13:55:06 245 V 12.10AMP 264V 10.60 AMP 50Hz 2964.5 KW
2018-05-23 13:37:34 309 V 0.10AMP 249V 0.10 AMP 50Hz 30.9 KW
2018-05-23 13:28:49 299 V 3.30AMP 259V 3.60 AMP 50Hz 986.7 KW
2018-05-23 12:36:13 233 V 13.50AMP 267V 11.20 AMP 50Hz 3145.5 KW
2018-05-23 12:27:28 239 V 14.50AMP 269V 12.30 AMP 50Hz 3465.5 KW
2018-05-23 12:18:42 246 V 14.20AMP 260V 12.40 AMP 50Hz 3493.2 KW
2018-05-23 12:09:56 239 V 14.40AMP 263V 12.20 AMP 50Hz 3441.6 KW
2018-05-23 12:01:10 244 V 14.10AMP 260V 12.10 AMP 50Hz 3440.4 KW
2018-05-23 11:52:24 245 V 13.90AMP 256V 12.20 AMP 50Hz 3405.5 KW
2018-05-23 11:43:38 241 V 13.90AMP 253V 12.10 AMP 50Hz 3349.9 KW
2018-05-23 11:34:52 247 V 13.30AMP 255V 11.80 AMP 50Hz 3285.1 KW
2018-05-23 11:26:06 252 V 12.90AMP 252V 11.80 AMP 50Hz 3250.8 KW
2018-05-23 11:17:21 251 V 12.90AMP 249V 11.90 AMP 50Hz 3237.9 KW
2018-05-23 11:08:35 244 V 12.90AMP 257V 11.40 AMP 50Hz 3147.6 KW
2018-05-23 10:59:49 250 V 12.40AMP 257V 11.00 AMP 50Hz 3100 KW
2018-05-23 10:51:04 254 V 12.20AMP 254V 11.10 AMP 50Hz 3098.8 KW
2018-05-23 10:42:18 254 V 11.80AMP 254V 10.80 AMP 50Hz 2997.2 KW
2018-05-23 10:33:32 260 V 11.30AMP 251V 10.70 AMP 50Hz 2938 KW
2018-05-23 10:24:43 251 V 11.40AMP 252V 10.40 AMP 50Hz 2861.4 KW
2018-05-23 10:15:57 257 V 10.60AMP 245V 10.20 AMP 50Hz 2724.2 KW
2018-05-23 10:07:11 259 V 10.40AMP 245V 10.00 AMP 50Hz 2693.6 KW
2018-05-23 09:58:25 263 V 9.80AMP 248V 9.50 AMP 50Hz 2577.4 KW
2018-05-23 09:49:39 257 V 9.20AMP 247V 8.90 AMP 50Hz 2364.4 KW
2018-05-23 09:40:53 261 V 8.80AMP 246V 8.60 AMP 50Hz 2296.8 KW
2018-05-23 09:32:08 265 V 8.30AMP 241V 8.40 AMP 50Hz 2199.5 KW
2018-05-23 09:23:22 267 V 7.90AMP 240V 8.10 AMP 50Hz 2109.3 KW
2018-05-23 09:14:36 258 V 7.70AMP 244V 7.60 AMP 50Hz 1986.6 KW
2018-05-23 09:05:51 265 V 6.80AMP 249V 6.80 AMP 50Hz 1802 KW
2018-05-23 08:57:05 262 V 3.90AMP 246V 4.00 AMP 50Hz 1021.8 KW
2018-05-23 08:48:18 269 V 5.50AMP 249V 5.70 AMP 50Hz 1479.5 KW
2018-05-23 08:39:32 264 V 5.50AMP 247V 5.60 AMP 50Hz 1452 KW
2018-05-23 08:30:46 276 V 4.80AMP 244V 5.20 AMP 50Hz 1324.8 KW
2018-05-23 08:22:01 278 V 4.20AMP 242V 4.60 AMP 50Hz 1167.6 KW
2018-05-23 08:13:15 277 V 3.60AMP 242V 3.90 AMP 50Hz 997.2 KW
2018-05-23 08:04:29 275 V 3.00AMP 243V 3.20 AMP 50Hz 825 KW
2018-05-23 07:55:43 275 V 2.40AMP 242V 2.60 AMP 50Hz 660 KW
2018-05-23 07:46:58 254 V 1.40AMP 238V 1.40 AMP 50Hz 355.6 KW
2018-05-23 07:38:12 265 V 1.00AMP 240V 1.00 AMP 50Hz 265 KW
2018-05-23 07:29:26 242 V 0.80AMP 245V 0.80 AMP 50Hz 193.6 KW
2018-05-23 07:20:41 221 V 0.70AMP 247V 0.60 AMP 50Hz 154.7 KW
2018-05-23 07:11:55 229 V 0.40AMP 248V 0.40 AMP 50Hz 91.6 KW
2018-05-23 07:03:09 259 V 0.30AMP 252V 0.30 AMP 50Hz 77.7 KW
2018-05-23 06:45:39 191 V 0.00AMP 244V 0.70 AMP 50Hz 0 KW
2018-05-23 06:36:53 267 V 0.00AMP 247V 0.70 AMP 50Hz 0 KW
2018-05-23 06:28:08 155 V 0.00AMP 247V 0.70 AMP 50Hz 0 KW
2018-05-23 06:19:22 97 V 0.00AMP 244V 0.50 AMP 50Hz 0 KW
2018-05-23 06:10:36 131 V 0.00AMP 250V 0.80 AMP 50Hz 0 KW
2018-05-23 18:21:58 103 V 0.00AMP 242V 0.80 AMP 50Hz 0 KW
2018-05-23 18:13:12 103 V 0.00AMP 244V 0.70 AMP 50Hz 0 KW
2018-05-23 18:04:27 248 V 0.00AMP 260V 1.60 AMP 50Hz 0 KW
2018-05-23 17:46:54 208 V 0.50AMP 249V 0.40 AMP 50Hz 104 KW
2018-05-23 17:38:09 224 V 1.10AMP 245V 1.00 AMP 50Hz 246.4 KW
2018-05-23 17:29:23 248 V 1.50AMP 244V 1.50 AMP 50Hz 372 KW
2018-05-23 17:20:38 250 V 2.10AMP 246V 2.00 AMP 50Hz 525 KW
2018-05-23 17:11:52 255 V 2.60AMP 247V 2.60 AMP 50Hz 663 KW
2018-05-23 17:03:04 264 V 3.10AMP 250V 3.10 AMP 50Hz 818.4 KW
2018-05-23 16:54:19 263 V 3.80AMP 251V 3.80 AMP 50Hz 999.4 KW
2018-05-23 16:45:33 261 V 4.40AMP 250V 4.40 AMP 50Hz 1148.4 KW
2018-05-23 16:36:48 251 V 5.00AMP 251V 4.80 AMP 50Hz 1255 KW
2018-05-23 16:28:01 258 V 5.30AMP 255V 5.10 AMP 50Hz 1367.4 KW
2018-05-23 16:19:16 255 V 5.90AMP 256V 5.60 AMP 50Hz 1504.5 KW
2018-05-23 16:10:30 257 V 6.70AMP 258V 6.30 AMP 50Hz 1721.9 KW
2018-05-23 16:01:43 252 V 7.50AMP 256V 6.90 AMP 50Hz 1890 KW
2018-05-23 15:52:58 259 V 7.60AMP 252V 7.30 AMP 50Hz 1968.4 KW
2018-05-23 15:44:12 257 V 8.00AMP 255V 7.60 AMP 50Hz 2056 KW
2018-05-23 15:26:41 250 V 9.20AMP 255V 8.30 AMP 50Hz 2300 KW
2018-05-23 15:17:55 252 V 9.80AMP 254V 8.90 AMP 50Hz 2469.6 KW
2018-05-23 15:09:09 250 V 10.00AMP 259V 8.80 AMP 50Hz 2500 KW
2018-05-23 15:00:23 251 V 10.10AMP 259V 9.00 AMP 50Hz 2535.1 KW
2018-05-23 12:57:41 308 V 0.20AMP 247V 0.20 AMP 50Hz 61.6 KW
2018-05-23 12:48:56 285 V 8.20AMP 265V 8.40 AMP 50Hz 2337 KW
2018-05-23 12:40:10 310 V 0.10AMP 251V 0.10 AMP 50Hz 31 KW
2018-05-23 10:55:01 302 V 4.10AMP 255V 4.60 AMP 50Hz 1238.2 KW
2018-05-23 10:37:30 253 V 11.50AMP 265V 10.40 AMP 50Hz 2909.5 KW
2018-05-23 10:28:44 263 V 10.90AMP 264V 10.30 AMP 50Hz 2866.7 KW
2018-05-23 10:19:58 259 V 10.50AMP 262V 9.90 AMP 50Hz 2719.5 KW
2018-05-23 10:11:13 258 V 10.30AMP 262V 9.60 AMP 50Hz 2657.4 KW
2018-05-23 10:02:28 263 V 9.70AMP 253V 9.40 AMP 50Hz 2551.1 KW
2018-05-23 09:53:41 260 V 9.40AMP 255V 8.90 AMP 50Hz 2444 KW
2018-05-23 09:44:56 260 V 9.10AMP 251V 8.90 AMP 50Hz 2366 KW
2018-05-23 09:36:10 267 V 8.30AMP 254V 8.30 AMP 50Hz 2216.1 KW
2018-05-23 09:27:24 261 V 8.10AMP 256V 7.90 AMP 50Hz 2114.1 KW
2018-05-23 09:18:39 263 V 7.60AMP 256V 7.40 AMP 50Hz 1998.8 KW
2018-05-23 09:09:53 262 V 7.10AMP 256V 6.90 AMP 50Hz 1860.2 KW
2018-05-23 09:01:07 268 V 6.40AMP 255V 6.40 AMP 50Hz 1715.2 KW
2018-05-23 08:52:22 267 V 5.90AMP 250V 6.00 AMP 50Hz 1575.3 KW
2018-05-23 08:43:36 269 V 5.30AMP 249V 5.40 AMP 50Hz 1425.7 KW
2018-05-23 08:34:51 273 V 4.70AMP 252V 4.80 AMP 50Hz 1283.1 KW
2018-05-23 08:26:05 270 V 4.20AMP 251V 4.30 AMP 50Hz 1134 KW
2018-05-23 08:17:20 280 V 3.50AMP 245V 3.80 AMP 50Hz 980 KW
2018-05-23 08:08:34 275 V 3.00AMP 244V 3.20 AMP 50Hz 825 KW
2018-05-23 07:59:49 274 V 2.40AMP 240V 2.60 AMP 50Hz 657.6 KW
2018-05-23 07:51:02 274 V 2.00AMP 244V 2.10 AMP 50Hz 548 KW
2018-05-23 07:42:16 266 V 1.50AMP 245V 1.50 AMP 50Hz 399 KW
2018-05-23 07:33:31 211 V 1.20AMP 244V 1.00 AMP 50Hz 253.2 KW
2018-05-23 07:24:46 203 V 0.80AMP 242V 0.60 AMP 50Hz 162.4 KW
2018-05-23 07:16:00 185 V 0.60AMP 244V 0.40 AMP 50Hz 111 KW
2018-05-23 07:07:13 217 V 0.40AMP 240V 0.30 AMP 50Hz 86.8 KW
2018-05-23 06:58:26 265 V 0.20AMP 240V 0.20 AMP 50Hz 53 KW
2018-05-23 06:49:40 231 V 0.10AMP 250V 0.10 AMP 50Hz 23.1 KW
2018-05-23 06:40:55 78 V 0.00AMP 243V 0.70 AMP 50Hz 0 KW
2018-05-23 06:32:08 287 V 0.00AMP 245V 0.80 AMP 50Hz 0 KW
2018-05-23 06:23:22 181 V 0.00AMP 240V 0.70 AMP 50Hz 0 KW
2018-05-23 06:14:35 76 V 0.00AMP 241V 0.70 AMP 50Hz 0 KW
2018-05-23 18:17:21 81 V 0.00AMP 250V 0.60 AMP 50Hz 0 KW
2018-05-23 18:08:35 115 V 0.00AMP 255V 0.60 AMP 50Hz 0 KW
2018-05-23 17:59:49 107 V 0.00AMP 248V 0.60 AMP 50Hz 0 KW
2018-05-23 17:41:45 79 V 0.00AMP 246V 0.70 AMP 50Hz 0 KW
2018-05-23 17:32:59 117 V 0.00AMP 249V 0.60 AMP 50Hz 0 KW
2018-05-23 17:24:14 275 V 0.00AMP 247V 0.90 AMP 50Hz 0 KW
2018-05-23 17:15:28 210 V 0.00AMP 247V 0.70 AMP 50Hz 0 KW
2018-05-23 17:06:42 170 V 0.20AMP 250V 0.10 AMP 50Hz 34 KW
2018-05-23 16:57:57 240 V 0.80AMP 250V 0.70 AMP 50Hz 192 KW
2018-05-23 16:49:11 255 V 2.40AMP 253V 2.30 AMP 50Hz 612 KW
2018-05-23 16:40:25 265 V 4.80AMP 259V 4.70 AMP 50Hz 1272 KW
2018-05-23 16:31:40 262 V 5.40AMP 260V 5.20 AMP 50Hz 1414.8 KW
2018-05-23 16:22:54 260 V 6.00AMP 261V 5.70 AMP 50Hz 1560 KW
2018-05-23 16:14:06 266 V 5.90AMP 259V 5.80 AMP 50Hz 1569.4 KW
2018-05-23 16:05:21 264 V 6.60AMP 260V 6.40 AMP 50Hz 1742.4 KW
2018-05-23 15:56:35 258 V 7.20AMP 254V 7.00 AMP 50Hz 1857.6 KW
2018-05-23 15:47:49 259 V 8.60AMP 256V 8.30 AMP 50Hz 2227.4 KW
2018-05-23 15:39:04 254 V 9.20AMP 256V 8.60 AMP 50Hz 2336.8 KW
2018-05-23 15:30:17 251 V 9.80AMP 257V 9.10 AMP 50Hz 2459.8 KW
2018-05-23 15:21:32 250 V 9.80AMP 258V 9.00 AMP 50Hz 2450 KW
2018-05-23 15:12:46 258 V 10.70AMP 264V 9.90 AMP 50Hz 2760.6 KW
2018-05-23 15:04:00 252 V 9.60AMP 262V 8.60 AMP 50Hz 2419.2 KW
2018-05-23 14:55:15 253 V 6.90AMP 251V 6.30 AMP 50Hz 1745.7 KW
2018-05-23 14:46:29 251 V 11.90AMP 260V 10.70 AMP 50Hz 2986.9 KW
2018-05-23 14:37:44 245 V 12.60AMP 263V 11.10 AMP 50Hz 3087 KW
2018-05-23 14:28:58 251 V 10.90AMP 262V 9.90 AMP 50Hz 2735.9 KW
2018-05-23 14:20:12 236 V 12.40AMP 266V 10.50 AMP 50Hz 2926.4 KW
2018-05-23 13:53:56 242 V 13.30AMP 266V 11.40 AMP 50Hz 3218.6 KW
2018-05-23 13:45:10 270 V 10.60AMP 267V 10.20 AMP 50Hz 2862 KW
2018-05-23 12:52:34 246 V 14.10AMP 269V 12.20 AMP 50Hz 3468.6 KW
2018-05-23 12:35:03 245 V 13.90AMP 267V 12.00 AMP 50Hz 3405.5 KW
2018-05-23 12:26:17 246 V 13.90AMP 267V 12.20 AMP 50Hz 3419.4 KW
2018-05-23 12:17:31 241 V 14.30AMP 267V 12.30 AMP 50Hz 3446.3 KW
2018-05-23 12:08:46 251 V 13.20AMP 268V 11.80 AMP 50Hz 3313.2 KW
2018-05-23 11:42:27 245 V 13.70AMP 266V 11.90 AMP 50Hz 3356.5 KW
2018-05-23 11:33:41 250 V 12.90AMP 265V 11.40 AMP 50Hz 3225 KW
2018-05-23 11:24:55 276 V 10.30AMP 267V 10.10 AMP 50Hz 2842.8 KW
2018-05-23 11:16:10 252 V 12.60AMP 264V 11.20 AMP 50Hz 3175.2 KW
2018-05-23 11:07:24 256 V 12.60AMP 264V 11.40 AMP 50Hz 3225.6 KW
2018-05-23 10:58:38 242 V 12.70AMP 262V 11.00 AMP 50Hz 3073.4 KW
2018-05-23 10:49:53 251 V 12.20AMP 262V 11.00 AMP 50Hz 3062.2 KW
2018-05-23 10:41:07 248 V 11.90AMP 260V 10.70 AMP 50Hz 2951.2 KW
2018-05-23 10:32:21 255 V 11.00AMP 261V 10.20 AMP 50Hz 2805 KW
2018-05-23 10:23:35 255 V 11.10AMP 261V 10.30 AMP 50Hz 2830.5 KW
2018-05-23 10:14:49 266 V 9.70AMP 255V 9.60 AMP 50Hz 2580.2 KW
2018-05-23 10:06:03 258 V 9.80AMP 248V 9.40 AMP 50Hz 2528.4 KW
2018-05-23 09:57:18 263 V 9.70AMP 258V 9.30 AMP 50Hz 2551.1 KW
2018-05-23 09:48:32 267 V 9.00AMP 257V 8.80 AMP 50Hz 2403 KW
2018-05-23 09:39:46 255 V 6.50AMP 252V 6.30 AMP 50Hz 1657.5 KW
2018-05-23 09:31:01 257 V 8.30AMP 254V 7.90 AMP 50Hz 2133.1 KW
2018-05-23 09:22:15 262 V 8.20AMP 251V 8.10 AMP 50Hz 2148.4 KW
2018-05-23 09:13:28 268 V 7.20AMP 253V 7.30 AMP 50Hz 1929.6 KW
2018-05-23 09:04:43 264 V 6.50AMP 250V 6.50 AMP 50Hz 1716 KW
2018-05-23 08:55:58 268 V 6.00AMP 247V 6.20 AMP 50Hz 1608 KW
2018-05-23 08:47:12 269 V 5.50AMP 246V 5.70 AMP 50Hz 1479.5 KW
2018-05-23 08:38:27 269 V 4.90AMP 249V 5.00 AMP 50Hz 1318.1 KW
2018-05-23 08:29:41 266 V 4.40AMP 249V 4.50 AMP 50Hz 1170.4 KW
2018-05-23 08:20:55 270 V 3.70AMP 242V 3.90 AMP 50Hz 999 KW
2018-05-23 08:12:10 275 V 3.10AMP 240V 3.40 AMP 50Hz 852.5 KW
2018-05-23 08:03:24 271 V 2.60AMP 244V 2.70 AMP 50Hz 704.6 KW
2018-05-23 07:54:39 272 V 2.20AMP 246V 2.30 AMP 50Hz 598.4 KW
2018-05-23 07:45:53 270 V 1.80AMP 245V 1.90 AMP 50Hz 486 KW
2018-05-23 07:37:08 224 V 1.30AMP 239V 1.20 AMP 50Hz 291.2 KW
2018-05-23 07:28:22 210 V 0.90AMP 241V 0.70 AMP 50Hz 189 KW
2018-05-23 07:19:37 242 V 0.60AMP 239V 0.60 AMP 50Hz 145.2 KW
2018-05-23 07:10:51 214 V 0.40AMP 247V 0.30 AMP 50Hz 85.6 KW
2018-05-23 07:02:05 216 V 0.20AMP 249V 0.20 AMP 50Hz 43.2 KW
2018-05-23 06:53:20 85 V 0.00AMP 247V 0.50 AMP 50Hz 0 KW
2018-05-23 06:44:34 256 V 0.00AMP 247V 0.50 AMP 50Hz 0 KW
2018-05-23 06:35:49 92 V 0.00AMP 245V 0.50 AMP 50Hz 0 KW
2018-05-23 06:27:03 104 V 0.00AMP 244V 0.50 AMP 50Hz 0 KW
2018-05-23 06:18:18 168 V 0.00AMP 240V 0.50 AMP 50Hz 0 KW
2018-05-23 18:30:28 134 V 0.00AMP 241V 0.70 AMP 50Hz 0 KW
2018-05-23 18:21:42 75 V 0.00AMP 242V 0.60 AMP 50Hz 0 KW
2018-05-23 18:12:56 171 V 0.00AMP 244V 0.50 AMP 50Hz 0 KW
2018-05-23 18:04:11 86 V 0.00AMP 256V 0.60 AMP 50Hz 0 KW
2018-05-23 17:55:25 167 V 0.00AMP 245V 0.60 AMP 50Hz 0 KW
2018-05-23 17:46:39 160 V 0.00AMP 248V 0.70 AMP 50Hz 0 KW
2018-05-23 17:37:54 198 V 0.30AMP 247V 0.20 AMP 50Hz 59.4 KW
2018-05-23 17:29:08 200 V 0.40AMP 250V 0.30 AMP 50Hz 80 KW
2018-05-23 17:20:22 245 V 1.70AMP 253V 1.60 AMP 50Hz 416.5 KW
2018-05-23 17:11:37 265 V 2.80AMP 249V 2.80 AMP 50Hz 742 KW
2018-05-23 17:02:51 275 V 3.30AMP 250V 3.50 AMP 50Hz 907.5 KW
2018-05-23 16:54:05 267 V 4.10AMP 250V 4.20 AMP 50Hz 1094.7 KW
2018-05-23 16:45:20 264 V 5.00AMP 250V 5.00 AMP 50Hz 1320 KW
2018-05-23 16:36:34 261 V 5.70AMP 250V 5.70 AMP 50Hz 1487.7 KW
2018-05-23 16:27:48 259 V 5.70AMP 254V 5.50 AMP 50Hz 1476.3 KW
2018-05-23 16:19:03 260 V 6.70AMP 256V 6.50 AMP 50Hz 1742 KW
2018-05-23 16:10:17 247 V 7.30AMP 258V 6.60 AMP 50Hz 1803.1 KW
2018-05-23 16:01:30 261 V 7.30AMP 255V 7.10 AMP 50Hz 1905.3 KW
2018-05-23 15:52:45 249 V 8.00AMP 257V 7.40 AMP 50Hz 1992 KW
2018-05-23 15:43:59 258 V 8.50AMP 258V 8.10 AMP 50Hz 2193 KW
2018-05-23 15:35:13 250 V 8.70AMP 255V 8.10 AMP 50Hz 2175 KW
2018-05-23 15:26:28 256 V 9.70AMP 259V 9.00 AMP 50Hz 2483.2 KW
2018-05-23 15:17:42 252 V 10.30AMP 261V 9.50 AMP 50Hz 2595.6 KW
2018-05-23 15:00:11 253 V 10.80AMP 263V 9.90 AMP 50Hz 2732.4 KW
2018-05-23 14:51:25 255 V 11.10AMP 261V 10.30 AMP 50Hz 2830.5 KW
2018-05-23 14:42:39 254 V 11.40AMP 257V 10.40 AMP 50Hz 2895.6 KW
2018-05-23 14:33:53 248 V 11.90AMP 261V 10.80 AMP 50Hz 2951.2 KW
2018-05-23 14:25:08 247 V 12.20AMP 262V 10.90 AMP 50Hz 3013.4 KW
2018-05-23 14:16:22 243 V 12.90AMP 265V 11.30 AMP 50Hz 3134.7 KW
2018-05-23 13:58:49 240 V 13.20AMP 267V 11.30 AMP 50Hz 3168 KW
2018-05-23 13:06:15 248 V 14.20AMP 267V 12.30 AMP 50Hz 3521.6 KW
2018-05-23 12:57:29 245 V 14.30AMP 266V 12.30 AMP 50Hz 3503.5 KW
2018-05-23 12:48:44 239 V 14.60AMP 268V 12.40 AMP 50Hz 3489.4 KW
2018-05-23 12:39:58 237 V 14.50AMP 268V 12.20 AMP 50Hz 3436.5 KW
2018-05-23 12:31:12 246 V 14.00AMP 268V 12.20 AMP 50Hz 3444 KW
2018-05-23 12:22:27 0 V 0.00AMP 266V 12.30 AMP 50Hz 0 KW
2018-05-23 11:47:23 248 V 13.70AMP 264V 11.90 AMP 50Hz 3397.6 KW
2018-05-23 11:38:37 248 V 13.80AMP 268V 12.10 AMP 50Hz 3422.4 KW
2018-05-23 11:29:52 251 V 13.40AMP 267V 12.00 AMP 50Hz 3363.4 KW
2018-05-23 11:21:06 256 V 13.00AMP 266V 11.80 AMP 50Hz 3328 KW
2018-05-23 11:12:20 248 V 13.10AMP 268V 11.50 AMP 50Hz 3248.8 KW
2018-05-23 11:03:35 248 V 12.70AMP 268V 11.20 AMP 50Hz 3149.6 KW
2018-05-23 10:54:48 247 V 12.60AMP 268V 11.00 AMP 50Hz 3112.2 KW
2018-05-23 10:46:02 256 V 12.00AMP 264V 11.00 AMP 50Hz 3072 KW
2018-05-23 10:37:17 259 V 11.60AMP 262V 10.70 AMP 50Hz 3004.4 KW
2018-05-23 10:28:31 256 V 11.30AMP 262V 10.40 AMP 50Hz 2892.8 KW
2018-05-23 10:19:45 249 V 11.10AMP 261V 10.00 AMP 50Hz 2763.9 KW
2018-05-23 10:10:59 261 V 10.30AMP 261V 9.80 AMP 50Hz 2688.3 KW
2018-05-23 10:02:14 260 V 10.00AMP 261V 9.40 AMP 50Hz 2600 KW
2018-05-23 09:53:28 265 V 9.50AMP 263V 9.10 AMP 50Hz 2517.5 KW
2018-05-23 09:44:43 270 V 8.80AMP 262V 8.60 AMP 50Hz 2376 KW
2018-05-23 09:35:57 262 V 8.60AMP 256V 8.30 AMP 50Hz 2253.2 KW
2018-05-23 09:27:11 259 V 8.30AMP 254V 8.00 AMP 50Hz 2149.7 KW
2018-05-23 09:18:25 268 V 7.70AMP 257V 7.60 AMP 50Hz 2063.6 KW
2018-05-23 09:09:39 269 V 7.00AMP 256V 7.00 AMP 50Hz 1883 KW
2018-05-23 09:00:54 272 V 6.40AMP 255V 6.50 AMP 50Hz 1740.8 KW
2018-05-23 08:52:09 270 V 6.00AMP 256V 6.00 AMP 50Hz 1620 KW
2018-05-23 08:43:23 267 V 5.40AMP 254V 5.40 AMP 50Hz 1441.8 KW
2018-05-23 08:34:37 277 V 4.60AMP 255V 4.80 AMP 50Hz 1274.2 KW
2018-05-23 08:25:52 276 V 4.00AMP 248V 4.20 AMP 50Hz 1104 KW
2018-05-23 08:17:06 283 V 3.40AMP 251V 3.60 AMP 50Hz 962.2 KW
2018-05-23 08:08:21 278 V 3.00AMP 250V 3.20 AMP 50Hz 834 KW
2018-05-23 07:59:35 276 V 2.50AMP 244V 2.70 AMP 50Hz 690 KW
2018-05-23 07:50:49 272 V 2.00AMP 243V 2.10 AMP 50Hz 544 KW
2018-05-23 07:42:03 252 V 1.60AMP 240V 1.60 AMP 50Hz 403.2 KW
2018-05-23 07:33:18 274 V 0.90AMP 246V 1.00 AMP 50Hz 246.6 KW
2018-05-23 07:24:32 250 V 0.60AMP 243V 0.60 AMP 50Hz 150 KW
2018-05-23 07:15:46 167 V 0.50AMP 245V 0.30 AMP 50Hz 83.5 KW
2018-05-23 07:07:01 185 V 0.20AMP 242V 0.10 AMP 50Hz 37 KW
2018-05-23 06:58:15 146 V 0.10AMP 243V 0.10 AMP 50Hz 14.6 KW
2018-05-23 06:49:29 122 V 0.00AMP 244V 0.50 AMP 50Hz 0 KW
2018-05-23 06:40:44 91 V 0.00AMP 245V 0.50 AMP 50Hz 0 KW
2018-05-23 06:31:58 227 V 0.00AMP 246V 0.50 AMP 50Hz 0 KW
2018-05-23 06:23:13 89 V 0.00AMP 247V 0.60 AMP 50Hz 0 KW
2018-05-23 06:14:28 136 V 0.00AMP 244V 0.50 AMP 50Hz 0 KW
2018-05-23 18:08:35 178 V 0.00AMP 246V 0.70 AMP 50Hz 0 KW
2018-05-23 17:59:45 267 V 0.00AMP 243V 0.70 AMP 50Hz 0 KW
2018-05-23 17:51:00 260 V 0.40AMP 242V 0.40 AMP 50Hz 104 KW
2018-05-23 17:42:14 266 V 1.20AMP 246V 1.20 AMP 50Hz 319.2 KW
2018-05-23 17:33:28 250 V 2.00AMP 247V 1.90 AMP 50Hz 500 KW
2018-05-23 17:24:43 262 V 1.10AMP 245V 1.10 AMP 50Hz 288.2 KW
2018-05-23 17:15:57 260 V 2.80AMP 249V 2.80 AMP 50Hz 728 KW
2018-05-23 17:07:11 262 V 3.10AMP 251V 3.10 AMP 50Hz 812.2 KW
2018-05-23 16:58:26 264 V 3.60AMP 250V 3.60 AMP 50Hz 950.4 KW
2018-05-23 16:49:40 268 V 4.30AMP 255V 4.30 AMP 50Hz 1152.4 KW
2018-05-23 16:40:54 263 V 5.70AMP 255V 5.60 AMP 50Hz 1499.1 KW
2018-05-23 16:32:09 261 V 6.80AMP 259V 6.50 AMP 50Hz 1774.8 KW
2018-05-23 16:23:23 268 V 6.70AMP 265V 6.40 AMP 50Hz 1795.6 KW
2018-05-23 16:14:37 261 V 3.10AMP 261V 2.90 AMP 50Hz 809.1 KW
2018-05-23 16:05:52 258 V 4.50AMP 262V 4.20 AMP 50Hz 1161 KW
2018-05-23 15:57:06 259 V 8.00AMP 264V 7.50 AMP 50Hz 2072 KW
2018-05-23 15:48:20 258 V 8.60AMP 260V 8.10 AMP 50Hz 2218.8 KW
2018-05-23 15:39:35 259 V 8.90AMP 254V 8.50 AMP 50Hz 2305.1 KW
2018-05-23 15:30:49 255 V 9.40AMP 254V 8.90 AMP 50Hz 2397 KW
2018-05-23 15:22:03 253 V 9.50AMP 255V 9.00 AMP 50Hz 2403.5 KW
2018-05-23 15:13:18 258 V 9.90AMP 255V 9.40 AMP 50Hz 2554.2 KW
2018-05-23 15:04:32 260 V 7.80AMP 257V 7.50 AMP 50Hz 2028 KW
2018-05-23 14:55:46 256 V 6.70AMP 254V 6.40 AMP 50Hz 1715.2 KW
2018-05-23 14:47:00 255 V 7.90AMP 255V 7.50 AMP 50Hz 2014.5 KW
2018-05-23 14:38:14 259 V 8.50AMP 257V 8.10 AMP 50Hz 2201.5 KW
2018-05-23 14:29:28 262 V 3.70AMP 246V 3.70 AMP 50Hz 969.4 KW
2018-05-23 14:20:43 252 V 5.40AMP 253V 5.10 AMP 50Hz 1360.8 KW
2018-05-23 14:11:57 250 V 7.20AMP 257V 6.70 AMP 50Hz 1800 KW
2018-05-23 13:36:54 298 V 3.50AMP 256V 3.90 AMP 50Hz 1043 KW
2018-05-23 13:28:09 305 V 3.10AMP 258V 3.50 AMP 50Hz 945.5 KW
2018-05-23 13:01:52 262 V 7.70AMP 261V 7.40 AMP 50Hz 2017.4 KW
2018-05-23 12:53:06 263 V 7.20AMP 255V 7.10 AMP 50Hz 1893.6 KW
2018-05-23 12:44:20 265 V 5.40AMP 252V 5.40 AMP 50Hz 1431 KW
2018-05-23 12:35:35 260 V 5.60AMP 254V 5.50 AMP 50Hz 1456 KW
2018-05-23 12:26:49 258 V 5.70AMP 253V 5.50 AMP 50Hz 1470.6 KW
2018-05-23 12:18:03 257 V 5.70AMP 253V 5.50 AMP 50Hz 1464.9 KW
2018-05-23 12:09:18 249 V 6.00AMP 256V 5.50 AMP 50Hz 1494 KW
2018-05-23 12:00:32 295 V 7.60AMP 259V 8.20 AMP 50Hz 2242 KW
2018-05-23 11:51:46 245 V 9.40AMP 255V 8.50 AMP 50Hz 2303 KW
2018-05-23 11:43:01 249 V 15.80AMP 267V 13.80 AMP 50Hz 3934.2 KW
2018-05-23 11:34:15 239 V 11.00AMP 256V 9.70 AMP 50Hz 2629 KW
2018-05-23 11:25:29 254 V 14.50AMP 264V 13.30 AMP 50Hz 3683 KW
2018-05-23 11:16:43 247 V 10.30AMP 254V 9.50 AMP 50Hz 2544.1 KW
2018-05-23 11:07:57 254 V 8.60AMP 253V 8.10 AMP 50Hz 2184.4 KW
2018-05-23 10:59:12 252 V 13.60AMP 261V 12.30 AMP 50Hz 3427.2 KW
2018-05-23 10:50:26 259 V 12.20AMP 259V 11.40 AMP 50Hz 3159.8 KW
2018-05-23 10:41:40 251 V 11.20AMP 258V 10.10 AMP 50Hz 2811.2 KW
2018-05-23 10:32:55 248 V 11.80AMP 256V 10.40 AMP 50Hz 2926.4 KW
2018-05-23 10:24:09 256 V 11.00AMP 255V 10.20 AMP 50Hz 2816 KW
2018-05-23 10:15:23 261 V 10.50AMP 250V 10.10 AMP 50Hz 2740.5 KW
2018-05-23 10:06:37 260 V 10.20AMP 249V 9.90 AMP 50Hz 2652 KW
2018-05-23 09:57:52 268 V 9.40AMP 248V 9.40 AMP 50Hz 2519.2 KW
2018-05-23 09:49:06 262 V 9.00AMP 245V 9.00 AMP 50Hz 2358 KW
2018-05-23 09:40:21 263 V 8.60AMP 245V 8.80 AMP 50Hz 2261.8 KW
2018-05-23 09:31:35 271 V 8.00AMP 251V 8.20 AMP 50Hz 2168 KW
2018-05-23 09:22:47 268 V 7.70AMP 251V 7.70 AMP 50Hz 2063.6 KW
2018-05-23 09:14:02 269 V 6.30AMP 248V 6.50 AMP 50Hz 1694.7 KW
2018-05-23 09:05:16 276 V 2.60AMP 242V 2.80 AMP 50Hz 717.6 KW
2018-05-23 08:56:31 268 V 6.20AMP 254V 6.20 AMP 50Hz 1661.6 KW
2018-05-23 08:47:45 272 V 5.30AMP 252V 5.40 AMP 50Hz 1441.6 KW
2018-05-23 08:39:00 275 V 5.30AMP 257V 5.40 AMP 50Hz 1457.5 KW
2018-05-23 08:30:14 277 V 5.00AMP 252V 5.20 AMP 50Hz 1385 KW
2018-05-23 08:21:28 282 V 3.60AMP 245V 3.90 AMP 50Hz 1015.2 KW
2018-05-23 08:12:42 280 V 3.30AMP 245V 3.60 AMP 50Hz 924 KW
2018-05-23 08:03:55 266 V 1.60AMP 245V 1.70 AMP 50Hz 425.6 KW
2018-05-23 07:55:10 274 V 2.30AMP 243V 2.50 AMP 50Hz 630.2 KW
2018-05-23 07:46:24 264 V 1.80AMP 243V 1.90 AMP 50Hz 475.2 KW
2018-05-23 07:37:39 203 V 0.80AMP 233V 0.70 AMP 50Hz 162.4 KW
2018-05-23 07:28:53 244 V 0.50AMP 239V 0.50 AMP 50Hz 122 KW
2018-05-23 07:20:08 263 V 0.20AMP 240V 0.20 AMP 50Hz 52.6 KW
2018-05-23 07:11:22 252 V 0.30AMP 246V 0.30 AMP 50Hz 75.6 KW
2018-05-23 07:02:36 189 V 0.30AMP 248V 0.20 AMP 50Hz 56.7 KW
2018-05-23 06:53:51 193 V 0.20AMP 244V 0.20 AMP 50Hz 38.6 KW
2018-05-23 06:45:05 162 V 0.10AMP 246V 0.10 AMP 50Hz 16.2 KW
2018-05-23 06:36:19 77 V 0.00AMP 248V 0.90 AMP 50Hz 0 KW
2018-05-23 06:27:34 246 V 0.00AMP 247V 0.70 AMP 50Hz 0 KW
2018-05-23 06:18:48 226 V 0.00AMP 248V 0.50 AMP 50Hz 0 KW
2018-05-23 18:21:50 138 V 0.00AMP 251V 0.70 AMP 50Hz 0 KW
2018-05-23 18:13:04 103 V 0.00AMP 250V 0.70 AMP 50Hz 0 KW
2018-05-23 18:04:19 107 V 0.00AMP 253V 0.60 AMP 50Hz 0 KW
2018-05-23 17:55:33 72 V 0.00AMP 245V 0.70 AMP 50Hz 0 KW
2018-05-23 17:46:47 189 V 0.00AMP 253V 0.70 AMP 50Hz 0 KW
2018-05-23 17:38:02 181 V 0.30AMP 248V 0.20 AMP 50Hz 54.3 KW
2018-05-23 17:29:16 240 V 1.50AMP 255V 1.30 AMP 50Hz 360 KW
2018-05-23 17:20:30 251 V 2.00AMP 252V 1.90 AMP 50Hz 502 KW
2018-05-23 17:11:44 262 V 2.50AMP 254V 2.50 AMP 50Hz 655 KW
2018-05-23 17:02:58 272 V 3.00AMP 257V 3.00 AMP 50Hz 816 KW
2018-05-23 16:54:12 267 V 3.70AMP 253V 3.70 AMP 50Hz 987.9 KW
2018-05-23 16:45:27 268 V 4.30AMP 256V 4.30 AMP 50Hz 1152.4 KW
2018-05-23 16:36:41 262 V 5.00AMP 257V 4.80 AMP 50Hz 1310 KW
2018-05-23 16:27:55 262 V 5.60AMP 258V 5.40 AMP 50Hz 1467.2 KW
2018-05-23 16:19:09 255 V 6.20AMP 257V 5.90 AMP 50Hz 1581 KW
2018-05-23 16:10:23 261 V 6.60AMP 259V 6.30 AMP 50Hz 1722.6 KW
2018-05-23 16:01:37 256 V 7.20AMP 253V 6.90 AMP 50Hz 1843.2 KW
2018-05-23 15:52:51 262 V 7.70AMP 247V 7.80 AMP 50Hz 2017.4 KW
2018-05-23 15:44:05 260 V 8.10AMP 254V 7.90 AMP 50Hz 2106 KW
2018-05-23 15:35:19 251 V 8.70AMP 255V 8.10 AMP 50Hz 2183.7 KW
2018-05-23 15:26:34 250 V 9.40AMP 254V 8.70 AMP 50Hz 2350 KW
2018-05-23 15:17:48 253 V 9.60AMP 255V 9.00 AMP 50Hz 2428.8 KW
2018-05-23 15:09:02 254 V 10.00AMP 256V 9.40 AMP 50Hz 2540 KW
2018-05-23 15:00:16 252 V 10.60AMP 254V 9.70 AMP 50Hz 2671.2 KW
2018-05-23 14:51:30 254 V 10.90AMP 257V 10.00 AMP 50Hz 2768.6 KW
2018-05-23 14:42:44 253 V 11.00AMP 257V 10.10 AMP 50Hz 2783 KW
2018-05-23 14:33:59 245 V 11.80AMP 257V 10.40 AMP 50Hz 2891 KW
2018-05-23 14:25:13 248 V 11.90AMP 258V 10.70 AMP 50Hz 2951.2 KW
2018-05-23 14:16:27 251 V 12.00AMP 262V 10.70 AMP 50Hz 3012 KW
2018-05-23 14:07:42 247 V 12.40AMP 261V 11.00 AMP 50Hz 3062.8 KW
2018-05-23 13:58:56 244 V 12.80AMP 263V 11.30 AMP 50Hz 3123.2 KW
2018-05-23 13:50:10 251 V 12.70AMP 266V 11.40 AMP 50Hz 3187.7 KW
2018-05-23 13:41:25 249 V 12.90AMP 265V 11.50 AMP 50Hz 3212.1 KW
2018-05-23 13:32:39 249 V 13.10AMP 262V 11.40 AMP 50Hz 3261.9 KW
2018-05-23 13:23:53 250 V 13.30AMP 264V 11.90 AMP 50Hz 3325 KW
2018-05-23 13:15:07 251 V 13.20AMP 265V 11.90 AMP 50Hz 3313.2 KW
2018-05-23 12:57:35 249 V 13.90AMP 268V 12.30 AMP 50Hz 3461.1 KW
2018-05-23 12:48:50 246 V 14.00AMP 261V 12.30 AMP 50Hz 3444 KW
2018-05-23 12:40:04 256 V 13.60AMP 263V 12.50 AMP 50Hz 3481.6 KW
2018-05-23 12:31:18 254 V 13.60AMP 264V 12.30 AMP 50Hz 3454.4 KW
2018-05-23 12:22:33 250 V 13.90AMP 265V 12.20 AMP 50Hz 3475 KW
2018-05-23 12:13:47 249 V 13.90AMP 264V 12.30 AMP 50Hz 3461.1 KW
2018-05-23 12:05:01 243 V 14.00AMP 265V 12.00 AMP 50Hz 3402 KW
2018-05-23 11:56:15 249 V 13.90AMP 263V 12.30 AMP 50Hz 3461.1 KW
2018-05-23 11:47:29 253 V 14.20AMP 261V 12.70 AMP 50Hz 3592.6 KW
2018-05-23 11:38:44 253 V 13.80AMP 264V 12.60 AMP 50Hz 3491.4 KW
2018-05-23 11:29:58 256 V 13.60AMP 264V 12.50 AMP 50Hz 3481.6 KW
2018-05-23 11:21:12 250 V 13.40AMP 264V 12.00 AMP 50Hz 3350 KW
2018-05-23 11:12:27 254 V 12.60AMP 261V 11.40 AMP 50Hz 3200.4 KW
2018-05-23 11:03:41 245 V 12.20AMP 261V 10.70 AMP 50Hz 2989 KW
2018-05-23 10:54:56 253 V 12.80AMP 259V 11.40 AMP 50Hz 3238.4 KW
2018-05-23 10:46:10 257 V 12.10AMP 255V 11.40 AMP 50Hz 3109.7 KW
2018-05-23 10:37:25 260 V 12.00AMP 257V 11.30 AMP 50Hz 3120 KW
2018-05-23 10:28:39 259 V 12.20AMP 258V 11.40 AMP 50Hz 3159.8 KW
2018-05-23 10:19:53 257 V 11.70AMP 260V 10.90 AMP 50Hz 3006.9 KW
2018-05-23 10:11:08 263 V 11.90AMP 261V 11.40 AMP 50Hz 3129.7 KW
2018-05-23 10:02:22 269 V 12.70AMP 264V 12.20 AMP 50Hz 3416.3 KW
2018-05-23 09:53:36 264 V 11.20AMP 261V 10.40 AMP 50Hz 2956.8 KW
2018-05-23 09:44:51 259 V 8.80AMP 257V 8.40 AMP 50Hz 2279.2 KW
2018-05-23 09:36:05 267 V 8.80AMP 254V 8.80 AMP 50Hz 2349.6 KW
2018-05-23 09:27:19 269 V 8.30AMP 253V 8.30 AMP 50Hz 2232.7 KW
2018-05-23 09:18:34 269 V 7.70AMP 250V 7.90 AMP 50Hz 2071.3 KW
2018-05-23 09:09:48 268 V 7.10AMP 252V 7.20 AMP 50Hz 1902.8 KW
2018-05-23 09:01:03 267 V 6.70AMP 254V 6.70 AMP 50Hz 1788.9 KW
2018-05-23 08:52:17 266 V 6.10AMP 257V 6.00 AMP 50Hz 1622.6 KW
2018-05-23 08:43:32 275 V 5.40AMP 249V 5.70 AMP 50Hz 1485 KW
2018-05-23 08:34:46 272 V 4.80AMP 247V 5.00 AMP 50Hz 1305.6 KW
2018-05-23 08:26:01 271 V 4.20AMP 250V 4.30 AMP 50Hz 1138.2 KW
2018-05-23 08:17:15 278 V 3.60AMP 252V 3.80 AMP 50Hz 1000.8 KW
2018-05-23 08:08:29 280 V 2.90AMP 253V 3.10 AMP 50Hz 812 KW
2018-05-23 07:59:44 286 V 2.40AMP 249V 2.60 AMP 50Hz 686.4 KW
2018-05-23 07:50:58 268 V 2.10AMP 249V 2.10 AMP 50Hz 562.8 KW
2018-05-23 07:42:12 243 V 1.50AMP 245V 1.40 AMP 50Hz 364.5 KW
2018-05-23 07:33:27 198 V 1.10AMP 239V 0.90 AMP 50Hz 217.8 KW
2018-05-23 07:24:41 173 V 0.70AMP 240V 0.50 AMP 50Hz 121.1 KW
2018-05-23 07:15:56 195 V 0.40AMP 240V 0.30 AMP 50Hz 78 KW
2018-05-23 07:07:11 204 V 0.00AMP 245V 0.70 AMP 50Hz 0 KW
2018-05-23 06:58:25 192 V 0.00AMP 247V 0.50 AMP 50Hz 0 KW
2018-05-23 06:49:39 187 V 0.00AMP 246V 0.50 AMP 50Hz 0 KW
2018-05-23 06:40:54 111 V 0.00AMP 248V 0.70 AMP 50Hz 0 KW
2018-05-23 06:32:08 103 V 0.00AMP 240V 0.50 AMP 50Hz 0 KW
2018-05-23 06:23:22 79 V 0.00AMP 240V 0.40 AMP 50Hz 0 KW
2018-05-23 18:26:52 162 V 0.00AMP 246V 0.70 AMP 50Hz 0 KW
2018-05-23 18:18:07 244 V 0.00AMP 250V 0.70 AMP 50Hz 0 KW
2018-05-23 18:09:20 174 V 0.20AMP 252V 0.10 AMP 50Hz 34.8 KW
2018-05-23 18:00:34 233 V 0.40AMP 251V 0.40 AMP 50Hz 93.2 KW
2018-05-23 17:51:49 151 V 0.10AMP 249V 0.10 AMP 50Hz 15.1 KW
2018-05-23 17:43:04 161 V 0.00AMP 249V 0.70 AMP 50Hz 0 KW
2018-05-23 17:34:18 128 V 0.00AMP 252V 0.60 AMP 50Hz 0 KW
2018-05-23 17:25:33 145 V 0.00AMP 252V 0.60 AMP 50Hz 0 KW
2018-05-23 17:16:47 170 V 0.00AMP 252V 0.80 AMP 50Hz 0 KW
2018-05-23 17:08:01 75 V 0.00AMP 253V 0.80 AMP 50Hz 0 KW
2018-05-23 16:59:16 200 V 0.00AMP 251V 0.60 AMP 50Hz 0 KW
2018-05-23 16:50:30 75 V 0.00AMP 247V 0.80 AMP 50Hz 0 KW
2018-05-23 16:41:44 118 V 0.00AMP 247V 0.70 AMP 50Hz 0 KW
2018-05-23 16:32:59 253 V 0.30AMP 248V 0.30 AMP 50Hz 75.9 KW
2018-05-23 16:24:13 251 V 1.00AMP 253V 0.90 AMP 50Hz 251 KW
2018-05-23 16:15:27 255 V 1.40AMP 254V 1.30 AMP 50Hz 357 KW
2018-05-23 16:06:42 267 V 1.50AMP 251V 1.50 AMP 50Hz 400.5 KW
2018-05-23 15:49:09 269 V 4.50AMP 256V 4.50 AMP 50Hz 1210.5 KW
2018-05-23 15:31:38 272 V 3.10AMP 246V 3.30 AMP 50Hz 843.2 KW
2018-05-23 15:22:52 271 V 2.50AMP 254V 2.50 AMP 50Hz 677.5 KW
2018-05-23 15:14:07 251 V 2.10AMP 252V 2.00 AMP 50Hz 527.1 KW
2018-05-23 15:05:21 248 V 4.80AMP 254V 4.50 AMP 50Hz 1190.4 KW
2018-05-23 14:04:01 314 V 0.10AMP 244V 0.10 AMP 50Hz 31.4 KW
2018-05-23 13:20:13 245 V 13.70AMP 265V 11.80 AMP 50Hz 3356.5 KW
2018-05-23 13:02:42 252 V 13.30AMP 267V 11.90 AMP 50Hz 3351.6 KW
2018-05-23 12:36:25 246 V 13.90AMP 267V 12.20 AMP 50Hz 3419.4 KW
2018-05-23 12:27:39 254 V 13.40AMP 264V 12.10 AMP 50Hz 3403.6 KW
2018-05-23 12:18:53 246 V 13.80AMP 265V 12.10 AMP 50Hz 3394.8 KW
2018-05-23 12:10:08 247 V 13.90AMP 265V 12.30 AMP 50Hz 3433.3 KW
2018-05-23 12:01:22 245 V 13.90AMP 267V 11.80 AMP 50Hz 3405.5 KW
2018-05-23 11:52:37 246 V 13.50AMP 265V 11.90 AMP 50Hz 3321 KW
2018-05-23 11:26:20 304 V 4.00AMP 259V 4.50 AMP 50Hz 1216 KW
2018-05-23 11:17:35 293 V 6.40AMP 266V 6.70 AMP 50Hz 1875.2 KW
2018-05-23 10:51:17 251 V 12.20AMP 266V 10.80 AMP 50Hz 3062.2 KW
2018-05-23 10:33:45 261 V 11.30AMP 266V 10.50 AMP 50Hz 2949.3 KW
2018-05-23 10:25:00 263 V 10.90AMP 267V 10.20 AMP 50Hz 2866.7 KW
2018-05-23 10:16:15 259 V 10.70AMP 267V 9.90 AMP 50Hz 2771.3 KW
2018-05-23 10:07:29 265 V 10.20AMP 265V 9.70 AMP 50Hz 2703 KW
2018-05-23 09:58:44 264 V 9.90AMP 258V 9.40 AMP 50Hz 2613.6 KW
2018-05-23 09:49:58 259 V 9.60AMP 258V 9.00 AMP 50Hz 2486.4 KW
2018-05-23 09:41:12 263 V 8.90AMP 263V 8.50 AMP 50Hz 2340.7 KW
2018-05-23 09:32:26 261 V 8.40AMP 261V 8.00 AMP 50Hz 2192.4 KW
2018-05-23 09:23:41 266 V 7.80AMP 264V 7.50 AMP 50Hz 2074.8 KW
2018-05-23 09:14:55 261 V 7.60AMP 260V 7.20 AMP 50Hz 1983.6 KW
2018-05-23 09:06:09 272 V 6.70AMP 261V 6.60 AMP 50Hz 1822.4 KW
2018-05-23 08:57:24 272 V 6.30AMP 255V 6.30 AMP 50Hz 1713.6 KW
2018-05-23 08:48:38 268 V 5.90AMP 255V 5.90 AMP 50Hz 1581.2 KW
2018-05-23 08:31:07 278 V 4.40AMP 251V 4.60 AMP 50Hz 1223.2 KW